Time,TemperatureF,DewpointF,PressureIn,WindDirection,WindDirectionDegrees,WindSpeedMPH,WindSpeedGustMPH,Humidity,HourlyPrecipIn,Conditions,Clouds,dailyrainin,SoftwareType,DateUTC
2013-04-18 00:00:00,65.8,54.6,30.33,North,356,0.0,0.0,67,-99.99,,CLR,-99.99,VWS V14.01,2013-04-18 04:00:00,
2013-04-18 00:01:00,65.8,54.6,30.33,North,356,2.7,5.8,67,-99.99,,CLR,-99.99,VWS V14.01,2013-04-18 04:01:00,
2013-04-18 00:02:00,65.8,54.6,30.33,North,356,4.5,6.3,67,-99.99,,CLR,-99.99,VWS V14.01,2013-04-18 04:02:00,
2013-04-18 00:07:00,65.8,55.0,30.33,North,356,3.6,4.9,68,-99.99,,CLR,-99.99,VWS V14.01,2013-04-18 04:07:00,
2013-04-18 00:08:00,65.8,55.0,30.33,North,356,4.0,4.0,68,-99.99,,CLR,-99.99,VWS V14.01,2013-04-18 04:08:00,
2013-04-18 00:09:00,65.8,55.0,30.33,North,356,0.0,4.0,68,-99.99,,CLR,-99.99,VWS V14.01,2013-04-18 04:09:00,
2013-04-18 00:12:00,65.7,54.8,30.33,North,356,3.6,4.5,68,-99.99,,CLR,-99.99,VWS V14.01,2013-04-18 04:12:00,
2013-04-18 00:13:00,65.7,54.8,30.33,North,356,2.7,4.5,68,-99.99,,CLR,-99.99,VWS V14.01,2013-04-18 04:13:00,
2013-04-18 00:14:00,65.7,54.8,30.33,North,356,4.5,4.9,68,-99.99,,CLR,-99.99,VWS V14.01,2013-04-18 04:14:00,
2013-04-18 00:16:00,65.5,54.7,30.33,North,356,0.0,0.0,68,-99.99,,CLR,-99.99,VWS V14.01,2013-04-18 04:16:00,
2013-04-18 00:17:00,65.5,54.7,30.33,North,356,3.6,4.5,68,-99.99,,CLR,-99.99,VWS V14.01,2013-04-18 04:17:00,
2013-04-18 00:19:00,65.5,54.7,30.33,North,356,0.0,0.0,68,-99.99,,CLR,-99.99,VWS V14.01,2013-04-18 04:19:00,
2013-04-18 00:22:00,65.5,54.7,30.33,North,356,0.0,3.1,68,-99.99,,CLR,-99.99,VWS V14.01,2013-04-18 04:22:00,
2013-04-18 00:23:00,65.5,54.7,30.33,North,356,0.0,0.0,68,-99.99,,CLR,-99.99,VWS V14.01,2013-04-18 04:23:00,
2013-04-18 00:24:00,65.3,54.5,30.33,North,356,0.0,0.0,68,-99.99,,CLR,-99.99,VWS V14.01,2013-04-18 04:24:00,
2013-04-18 00:27:00,65.1,54.7,30.33,North,356,0.0,0.0,69,-99.99,,CLR,-99.99,VWS V14.01,2013-04-18 04:27:00,
2013-04-18 00:28:00,65.1,54.7,30.33,North,356,0.0,0.0,69,-99.99,,CLR,-99.99,VWS V14.01,2013-04-18 04:28:00,
2013-04-18 00:30:00,65.1,55.1,30.33,North,356,0.0,0.0,70,-99.99,,CLR,-99.99,VWS V14.01,2013-04-18 04:30:00,
2013-04-18 00:31:00,65.1,55.1,30.33,North,356,0.0,0.0,70,-99.99,,CLR,-99.99,VWS V14.01,2013-04-18 04:31:00,
2013-04-18 00:33:00,65.1,55.1,30.33,North,356,0.0,0.0,70,-99.99,,CLR,-99.99,VWS V14.01,2013-04-18 04:33:00,
2013-04-18 00:34:00,65.1,55.1,30.33,North,356,0.0,0.0,70,-99.99,,CLR,-99.99,VWS V14.01,2013-04-18 04:34:00,
2013-04-18 00:36:00,64.9,54.9,30.33,North,356,0.0,0.0,70,-99.99,,CLR,-99.99,VWS V14.01,2013-04-18 04:36:00,
2013-04-18 00:37:00,64.9,54.9,30.33,North,356,0.0,0.0,70,-99.99,,CLR,-99.99,VWS V14.01,2013-04-18 04:37:00,
2013-04-18 00:39:00,64.9,54.9,30.33,North,356,0.0,0.0,70,-99.99,,CLR,-99.99,VWS V14.01,2013-04-18 04:39:00,
2013-04-18 00:42:00,64.8,54.8,30.33,North,356,0.0,0.0,70,-99.99,,CLR,-99.99,VWS V14.01,2013-04-18 04:42:00,
2013-04-18 00:43:00,64.8,54.8,30.33,North,356,0.0,0.0,70,-99.99,,CLR,-99.99,VWS V14.01,2013-04-18 04:43:00,
2013-04-18 00:44:00,64.6,54.6,30.33,North,356,0.0,0.0,70,-99.99,,CLR,-99.99,VWS V14.01,2013-04-18 04:44:00,
2013-04-18 00:47:00,64.4,54.4,30.33,North,356,0.0,0.0,70,-99.99,,CLR,-99.99,VWS V14.01,2013-04-18 04:47:00,
2013-04-18 00:48:00,64.4,54.8,30.33,North,356,0.0,0.0,71,-99.99,,CLR,-99.99,VWS V14.01,2013-04-18 04:48:00,
2013-04-18 00:49:00,64.4,54.8,30.33,North,356,0.0,0.0,71,-99.99,,CLR,-99.99,VWS V14.01,2013-04-18 04:49:00,
2013-04-18 00:50:00,64.4,54.8,30.33,North,356,0.0,0.0,71,-99.99,,CLR,-99.99,VWS V14.01,2013-04-18 04:50:00,
2013-04-18 00:51:00,64.4,54.8,30.33,North,356,0.0,0.0,71,-99.99,,CLR,-99.99,VWS V14.01,2013-04-18 04:51:00,
2013-04-18 00:53:00,64.2,54.6,30.33,North,356,0.0,0.0,71,-99.99,,CLR,-99.99,VWS V14.01,2013-04-18 04:53:00,
2013-04-18 00:54:00,64.2,54.6,30.33,North,356,0.0,0.0,71,-99.99,,CLR,-99.99,VWS V14.01,2013-04-18 04:54:00,
2013-04-18 00:56:00,64.0,54.5,30.33,North,356,0.0,0.0,71,-99.99,,CLR,-99.99,VWS V14.01,2013-04-18 04:56:00,
2013-04-18 00:58:00,64.0,54.8,30.33,North,356,0.0,0.0,72,-99.99,,CLR,-99.99,VWS V14.01,2013-04-18 04:58:00,
2013-04-18 00:59:00,63.9,54.7,30.33,North,356,0.0,0.0,72,-99.99,,CLR,-99.99,VWS V14.01,2013-04-18 04:59:00,
2013-04-18 01:02:00,63.9,54.7,30.33,North,356,0.0,0.0,72,-99.99,,CLR,-99.99,VWS V14.01,2013-04-18 05:02:00,
2013-04-18 01:03:00,63.7,54.5,30.33,North,356,0.0,0.0,72,-99.99,,CLR,-99.99,VWS V14.01,2013-04-18 05:03:00,
2013-04-18 01:04:00,63.7,54.5,30.33,North,356,0.0,0.0,72,-99.99,,CLR,-99.99,VWS V14.01,2013-04-18 05:04:00,
2013-04-18 01:05:00,63.5,54.3,30.33,North,356,0.0,0.0,72,-99.99,,CLR,-99.99,VWS V14.01,2013-04-18 05:05:00,
2013-04-18 01:07:00,63.5,54.3,30.33,North,356,0.0,0.0,72,-99.99,,CLR,-99.99,VWS V14.01,2013-04-18 05:07:00,
2013-04-18 01:08:00,63.5,54.3,30.33,North,356,0.0,0.0,72,-99.99,,CLR,-99.99,VWS V14.01,2013-04-18 05:08:00,
2013-04-18 01:09:00,63.3,54.2,30.33,North,356,0.0,0.0,72,-99.99,,CLR,-99.99,VWS V14.01,2013-04-18 05:09:00,
2013-04-18 01:11:00,63.1,54.0,30.33,North,356,0.0,0.0,72,-99.99,,CLR,-99.99,VWS V14.01,2013-04-18 05:11:00,
2013-04-18 01:12:00,63.1,54.0,30.33,North,356,0.0,0.0,72,-99.99,,CLR,-99.99,VWS V14.01,2013-04-18 05:12:00,
2013-04-18 01:14:00,63.0,53.8,30.33,North,356,0.0,0.0,72,-99.99,,CLR,-99.99,VWS V14.01,2013-04-18 05:14:00,
2013-04-18 01:15:00,63.0,53.8,30.33,North,356,0.0,0.0,72,-99.99,,CLR,-99.99,VWS V14.01,2013-04-18 05:15:00,
2013-04-18 01:17:00,62.8,53.6,30.33,North,356,0.0,0.0,72,-99.99,,CLR,-99.99,VWS V14.01,2013-04-18 05:17:00,
2013-04-18 01:19:00,62.6,53.5,30.33,North,356,0.0,0.0,72,-99.99,,CLR,-99.99,VWS V14.01,2013-04-18 05:19:00,
2013-04-18 01:21:00,62.6,53.5,30.33,North,356,0.0,0.0,72,-99.99,,CLR,-99.99,VWS V14.01,2013-04-18 05:21:00,
2013-04-18 01:23:00,62.4,53.3,30.33,North,356,0.0,0.0,72,-99.99,,CLR,-99.99,VWS V14.01,2013-04-18 05:23:00,
2013-04-18 01:25:00,62.2,53.1,30.33,North,356,0.0,0.0,72,-99.99,,CLR,-99.99,VWS V14.01,2013-04-18 05:25:00,
2013-04-18 01:26:00,62.2,53.1,30.33,North,356,0.0,0.0,72,-99.99,,CLR,-99.99,VWS V14.01,2013-04-18 05:26:00,
2013-04-18 01:27:00,62.2,53.1,30.33,North,356,0.0,0.0,72,-99.99,,CLR,-99.99,VWS V14.01,2013-04-18 05:27:00,
2013-04-18 01:29:00,62.1,52.9,30.33,North,356,0.0,0.0,72,-99.99,,CLR,-99.99,VWS V14.01,2013-04-18 05:29:00,
2013-04-18 01:30:00,62.1,53.3,30.33,North,356,0.0,0.0,73,-99.99,,CLR,-99.99,VWS V14.01,2013-04-18 05:30:00,
2013-04-18 01:31:00,61.9,53.1,30.33,North,356,0.0,0.0,73,-99.99,,CLR,-99.99,VWS V14.01,2013-04-18 05:31:00,
2013-04-18 01:32:00,61.9,53.1,30.33,North,356,0.0,0.0,73,-99.99,,CLR,-99.99,VWS V14.01,2013-04-18 05:32:00,
2013-04-18 01:35:00,61.9,53.1,30.30,North,356,0.0,0.0,73,-99.99,,CLR,-99.99,VWS V14.01,2013-04-18 05:35:00,
2013-04-18 01:36:00,61.7,53.0,30.30,North,356,0.0,0.0,73,-99.99,,CLR,-99.99,VWS V14.01,2013-04-18 05:36:00,
2013-04-18 01:38:00,61.7,53.0,30.30,North,356,0.0,0.0,73,-99.99,,CLR,-99.99,VWS V14.01,2013-04-18 05:38:00,
2013-04-18 01:41:00,61.5,52.8,30.30,North,356,0.0,0.0,73,-99.99,,CLR,-99.99,VWS V14.01,2013-04-18 05:41:00,
2013-04-18 01:42:00,61.5,52.8,30.30,North,356,0.0,0.0,73,-99.99,,CLR,-99.99,VWS V14.01,2013-04-18 05:42:00,
2013-04-18 01:43:00,61.5,52.8,30.30,North,356,0.0,0.0,73,-99.99,,CLR,-99.99,VWS V14.01,2013-04-18 05:43:00,
2013-04-18 01:46:00,61.3,53.0,30.30,North,356,0.0,0.0,74,-99.99,,CLR,-99.99,VWS V14.01,2013-04-18 05:46:00,
2013-04-18 01:47:00,61.3,53.0,30.30,North,356,0.0,0.0,74,-99.99,,CLR,-99.99,VWS V14.01,2013-04-18 05:47:00,
2013-04-18 01:51:00,61.3,53.0,30.30,North,356,0.0,0.0,74,-99.99,,CLR,-99.99,VWS V14.01,2013-04-18 05:51:00,
2013-04-18 01:52:00,61.2,52.8,30.30,North,356,0.0,0.0,74,-99.99,,CLR,-99.99,VWS V14.01,2013-04-18 05:52:00,
2013-04-18 01:53:00,61.2,52.8,30.30,North,356,0.0,0.0,74,-99.99,,CLR,-99.99,VWS V14.01,2013-04-18 05:53:00,
2013-04-18 01:57:00,61.0,52.7,30.30,North,356,0.0,0.0,74,-99.99,,CLR,-99.99,VWS V14.01,2013-04-18 05:57:00,
2013-04-18 01:58:00,61.0,52.7,30.30,North,356,0.0,0.0,74,-99.99,,CLR,-99.99,VWS V14.01,2013-04-18 05:58:00,
2013-04-18 02:02:00,60.8,52.5,30.30,North,356,0.0,0.0,74,-99.99,,CLR,-99.99,VWS V14.01,2013-04-18 06:02:00,
2013-04-18 02:03:00,60.6,52.7,30.30,North,356,0.0,0.0,75,-99.99,,CLR,-99.99,VWS V14.01,2013-04-18 06:03:00,
2013-04-18 02:04:00,60.6,52.7,30.30,North,356,0.0,0.0,75,-99.99,,CLR,-99.99,VWS V14.01,2013-04-18 06:04:00,
2013-04-18 02:06:00,60.6,52.7,30.30,North,356,0.0,0.0,75,-99.99,,CLR,-99.99,VWS V14.01,2013-04-18 06:06:00,
2013-04-18 02:08:00,60.4,52.5,30.30,North,356,0.0,0.0,75,-99.99,,CLR,-99.99,VWS V14.01,2013-04-18 06:08:00,
2013-04-18 02:09:00,60.4,52.5,30.30,North,356,0.0,0.0,75,-99.99,,CLR,-99.99,VWS V14.01,2013-04-18 06:09:00,
2013-04-18 02:10:00,60.4,52.5,30.30,North,356,0.0,0.0,75,-99.99,,CLR,-99.99,VWS V14.01,2013-04-18 06:10:00,
2013-04-18 02:13:00,60.3,52.3,30.30,North,356,0.0,0.0,75,-99.99,,CLR,-99.99,VWS V14.01,2013-04-18 06:13:00,
2013-04-18 02:14:00,60.3,52.3,30.30,North,356,0.0,0.0,75,-99.99,,CLR,-99.99,VWS V14.01,2013-04-18 06:14:00,
2013-04-18 02:15:00,60.3,52.3,30.30,North,356,0.0,0.0,75,-99.99,,CLR,-99.99,VWS V14.01,2013-04-18 06:15:00,
2013-04-18 02:16:00,60.3,52.7,30.30,North,356,0.0,0.0,76,-99.99,,CLR,-99.99,VWS V14.01,2013-04-18 06:16:00,
2013-04-18 02:18:00,60.1,52.5,30.30,North,356,0.0,0.0,76,-99.99,,CLR,-99.99,VWS V14.01,2013-04-18 06:18:00,
2013-04-18 02:20:00,60.1,52.5,30.30,North,356,0.0,0.0,76,-99.99,,CLR,-99.99,VWS V14.01,2013-04-18 06:20:00,
2013-04-18 02:21:00,60.1,52.5,30.30,North,356,0.0,0.0,76,-99.99,,CLR,-99.99,VWS V14.01,2013-04-18 06:21:00,
2013-04-18 02:22:00,59.9,52.3,30.30,North,356,0.0,0.0,76,-99.99,,CLR,-99.99,VWS V14.01,2013-04-18 06:22:00,
2013-04-18 02:23:00,59.9,52.3,30.30,North,356,0.0,0.0,76,-99.99,,CLR,-99.99,VWS V14.01,2013-04-18 06:23:00,
2013-04-18 02:25:00,59.9,52.7,30.30,North,356,0.0,0.0,77,-99.99,,CLR,-99.99,VWS V14.01,2013-04-18 06:25:00,
2013-04-18 02:27:00,59.7,52.5,30.30,North,356,0.0,0.0,77,-99.99,,CLR,-99.99,VWS V14.01,2013-04-18 06:27:00,
2013-04-18 02:28:00,59.7,52.5,30.30,North,356,0.0,0.0,77,-99.99,,CLR,-99.99,VWS V14.01,2013-04-18 06:28:00,
2013-04-18 02:29:00,59.7,52.5,30.30,North,356,0.0,0.0,77,-99.99,,CLR,-99.99,VWS V14.01,2013-04-18 06:29:00,
2013-04-18 02:30:00,59.7,52.5,30.30,North,356,0.0,0.0,77,-99.99,,CLR,-99.99,VWS V14.01,2013-04-18 06:30:00,
2013-04-18 02:33:00,59.7,52.9,30.30,North,356,0.0,0.0,78,-99.99,,CLR,-99.99,VWS V14.01,2013-04-18 06:33:00,
2013-04-18 02:34:00,59.7,52.9,30.30,North,356,0.0,0.0,78,-99.99,,CLR,-99.99,VWS V14.01,2013-04-18 06:34:00,
2013-04-18 02:35:00,59.7,52.9,30.30,North,356,0.0,0.0,78,-99.99,,CLR,-99.99,VWS V14.01,2013-04-18 06:35:00,
2013-04-18 02:37:00,59.7,52.9,30.30,North,356,0.0,0.0,78,-99.99,,CLR,-99.99,VWS V14.01,2013-04-18 06:37:00,
2013-04-18 02:38:00,59.5,52.7,30.30,North,356,0.0,0.0,78,-99.99,,CLR,-99.99,VWS V14.01,2013-04-18 06:38:00,
2013-04-18 02:39:00,59.5,52.7,30.30,North,356,0.0,0.0,78,-99.99,,CLR,-99.99,VWS V14.01,2013-04-18 06:39:00,
2013-04-18 02:41:00,59.5,52.7,30.30,North,356,0.0,0.0,78,-99.99,,CLR,-99.99,VWS V14.01,2013-04-18 06:41:00,
2013-04-18 02:43:00,59.5,52.7,30.30,North,356,0.0,0.0,78,-99.99,,CLR,-99.99,VWS V14.01,2013-04-18 06:43:00,
2013-04-18 02:44:00,59.5,53.0,30.30,North,356,0.0,0.0,79,-99.99,,CLR,-99.99,VWS V14.01,2013-04-18 06:44:00,
2013-04-18 02:45:00,59.5,53.0,30.30,North,356,0.0,0.0,79,-99.99,,CLR,-99.99,VWS V14.01,2013-04-18 06:45:00,
2013-04-18 02:48:00,59.4,52.9,30.30,North,356,0.0,0.0,79,-99.99,,CLR,-99.99,VWS V14.01,2013-04-18 06:48:00,
2013-04-18 02:49:00,59.4,52.9,30.30,North,356,0.0,0.0,79,-99.99,,CLR,-99.99,VWS V14.01,2013-04-18 06:49:00,
2013-04-18 02:51:00,59.4,52.9,30.30,North,356,0.0,0.0,79,-99.99,,CLR,-99.99,VWS V14.01,2013-04-18 06:51:00,
2013-04-18 02:53:00,59.4,52.9,30.30,North,356,0.0,0.0,79,-99.99,,CLR,-99.99,VWS V14.01,2013-04-18 06:53:00,
2013-04-18 02:54:00,59.4,52.9,30.30,North,356,0.0,0.0,79,-99.99,,CLR,-99.99,VWS V14.01,2013-04-18 06:54:00,
2013-04-18 02:56:00,59.2,52.7,30.30,North,356,0.0,0.0,79,-99.99,,CLR,-99.99,VWS V14.01,2013-04-18 06:56:00,
2013-04-18 02:57:00,59.2,52.7,30.30,North,356,0.0,0.0,79,-99.99,,CLR,-99.99,VWS V14.01,2013-04-18 06:57:00,
2013-04-18 02:59:00,59.2,53.0,30.30,North,356,0.0,0.0,80,-99.99,,CLR,-99.99,VWS V14.01,2013-04-18 06:59:00,
2013-04-18 03:01:00,59.2,53.0,30.30,North,356,0.0,0.0,80,-99.99,,CLR,-99.99,VWS V14.01,2013-04-18 07:01:00,
2013-04-18 03:02:00,59.2,53.0,30.30,North,356,0.0,0.0,80,-99.99,,CLR,-99.99,VWS V14.01,2013-04-18 07:02:00,
2013-04-18 03:05:00,59.0,52.8,30.30,North,356,0.0,0.0,80,-99.99,,CLR,-99.99,VWS V14.01,2013-04-18 07:05:00,
2013-04-18 03:07:00,59.0,52.8,30.30,North,356,0.0,0.0,80,-99.99,,CLR,-99.99,VWS V14.01,2013-04-18 07:07:00,
2013-04-18 03:08:00,59.0,52.8,30.30,North,356,0.0,0.0,80,-99.99,,CLR,-99.99,VWS V14.01,2013-04-18 07:08:00,
2013-04-18 03:10:00,59.0,53.2,30.30,North,356,0.0,0.0,81,-99.99,,CLR,-99.99,VWS V14.01,2013-04-18 07:10:00,
2013-04-18 03:12:00,59.0,53.2,30.30,North,356,0.0,0.0,81,-99.99,,CLR,-99.99,VWS V14.01,2013-04-18 07:12:00,
2013-04-18 03:13:00,59.0,53.2,30.30,North,356,0.0,0.0,81,-99.99,,CLR,-99.99,VWS V14.01,2013-04-18 07:13:00,
2013-04-18 03:16:00,59.4,53.9,30.30,North,356,0.0,0.0,82,-99.99,,CLR,-99.99,VWS V14.01,2013-04-18 07:16:00,
2013-04-18 03:17:00,59.4,54.2,30.30,North,356,0.0,0.0,83,-99.99,,CLR,-99.99,VWS V14.01,2013-04-18 07:17:00,
2013-04-18 03:18:00,59.4,54.2,30.30,North,356,0.0,0.0,83,-99.99,,CLR,-99.99,VWS V14.01,2013-04-18 07:18:00,
2013-04-18 03:19:00,59.4,54.2,30.30,North,356,0.0,0.0,83,-99.99,,CLR,-99.99,VWS V14.01,2013-04-18 07:19:00,
2013-04-18 03:22:00,59.5,54.7,30.30,North,356,0.0,0.0,84,-99.99,,CLR,-99.99,VWS V14.01,2013-04-18 07:22:00,
2013-04-18 03:23:00,59.5,54.7,30.30,North,356,0.0,0.0,84,-99.99,,CLR,-99.99,VWS V14.01,2013-04-18 07:23:00,
2013-04-18 03:25:00,59.4,54.5,30.30,North,356,0.0,0.0,84,-99.99,,CLR,-99.99,VWS V14.01,2013-04-18 07:25:00,
2013-04-18 03:26:00,59.4,54.5,30.30,North,356,0.0,0.0,84,-99.99,,CLR,-99.99,VWS V14.01,2013-04-18 07:26:00,
2013-04-18 03:27:00,59.4,54.5,30.30,North,356,0.0,0.0,84,-99.99,,CLR,-99.99,VWS V14.01,2013-04-18 07:27:00,
2013-04-18 03:28:00,59.4,54.5,30.30,North,356,0.0,0.0,84,-99.99,,CLR,-99.99,VWS V14.01,2013-04-18 07:28:00,
2013-04-18 03:29:00,59.4,54.5,30.30,North,356,0.0,0.0,84,-99.99,,CLR,-99.99,VWS V14.01,2013-04-18 07:29:00,
2013-04-18 03:31:00,59.4,54.5,30.30,North,356,0.0,0.0,84,-99.99,,CLR,-99.99,VWS V14.01,2013-04-18 07:31:00,
2013-04-18 03:32:00,59.4,54.5,30.30,North,356,0.0,0.0,84,-99.99,,CLR,-99.99,VWS V14.01,2013-04-18 07:32:00,
2013-04-18 03:34:00,59.4,54.9,30.30,North,356,0.0,0.0,85,-99.99,,CLR,-99.99,VWS V14.01,2013-04-18 07:34:00,
2013-04-18 03:35:00,59.4,54.9,30.30,North,356,0.0,0.0,85,-99.99,,CLR,-99.99,VWS V14.01,2013-04-18 07:35:00,
2013-04-18 03:38:00,59.4,54.9,30.30,North,356,0.0,0.0,85,-99.99,,CLR,-99.99,VWS V14.01,2013-04-18 07:38:00,
2013-04-18 03:39:00,59.4,55.2,30.30,North,356,0.0,0.0,86,-99.99,,CLR,-99.99,VWS V14.01,2013-04-18 07:39:00,
2013-04-18 03:41:00,59.5,55.3,30.30,North,356,0.0,0.0,86,-99.99,,CLR,-99.99,VWS V14.01,2013-04-18 07:41:00,
2013-04-18 03:43:00,59.5,55.7,30.30,North,356,0.0,0.0,87,-99.99,,CLR,-99.99,VWS V14.01,2013-04-18 07:43:00,
2013-04-18 03:44:00,59.5,55.7,30.30,North,356,0.0,0.0,87,-99.99,,CLR,-99.99,VWS V14.01,2013-04-18 07:44:00,
2013-04-18 03:45:00,59.7,55.8,30.30,North,356,0.0,0.0,87,-99.99,,CLR,-99.99,VWS V14.01,2013-04-18 07:45:00,
2013-04-18 03:49:00,59.7,55.8,30.30,North,356,0.0,0.0,87,-99.99,,CLR,-99.99,VWS V14.01,2013-04-18 07:49:00,
2013-04-18 03:50:00,59.5,56.0,30.30,North,356,0.0,0.0,88,-99.99,,CLR,-99.99,VWS V14.01,2013-04-18 07:50:00,
2013-04-18 03:52:00,59.5,56.0,30.30,North,356,0.0,0.0,88,-99.99,,CLR,-99.99,VWS V14.01,2013-04-18 07:52:00,
2013-04-18 03:54:00,59.5,56.0,30.30,North,356,0.0,0.0,88,-99.99,,CLR,-99.99,VWS V14.01,2013-04-18 07:54:00,
2013-04-18 03:55:00,59.5,56.0,30.30,North,356,0.0,0.0,88,-99.99,,CLR,-99.99,VWS V14.01,2013-04-18 07:55:00,
2013-04-18 03:58:00,59.5,56.0,30.30,North,356,0.0,0.0,88,-99.99,,CLR,-99.99,VWS V14.01,2013-04-18 07:58:00,
2013-04-18 04:00:00,59.5,56.0,30.30,North,356,0.0,0.0,88,-99.99,,CLR,-99.99,VWS V14.01,2013-04-18 08:00:00,
2013-04-18 04:02:00,59.4,55.8,30.30,North,356,0.0,0.0,88,-99.99,,CLR,-99.99,VWS V14.01,2013-04-18 08:02:00,
2013-04-18 04:04:00,59.4,55.8,30.30,North,356,0.0,0.0,88,-99.99,,CLR,-99.99,VWS V14.01,2013-04-18 08:04:00,
2013-04-18 04:07:00,59.4,55.8,30.30,North,356,0.0,0.0,88,-99.99,,CLR,-99.99,VWS V14.01,2013-04-18 08:07:00,
2013-04-18 04:08:00,59.4,55.8,30.30,North,356,0.0,0.0,88,-99.99,,CLR,-99.99,VWS V14.01,2013-04-18 08:08:00,
2013-04-18 04:09:00,59.4,55.8,30.30,North,356,0.0,0.0,88,-99.99,,CLR,-99.99,VWS V14.01,2013-04-18 08:09:00,
2013-04-18 04:10:00,59.2,55.6,30.30,North,356,0.0,0.0,88,-99.99,,CLR,-99.99,VWS V14.01,2013-04-18 08:10:00,
2013-04-18 04:13:00,59.4,55.8,30.30,North,356,0.0,0.0,88,-99.99,,CLR,-99.99,VWS V14.01,2013-04-18 08:13:00,
2013-04-18 04:14:00,59.4,55.8,30.30,North,356,0.0,0.0,88,-99.99,,CLR,-99.99,VWS V14.01,2013-04-18 08:14:00,
2013-04-18 04:16:00,59.4,56.1,30.30,North,356,0.0,0.0,89,-99.99,,CLR,-99.99,VWS V14.01,2013-04-18 08:16:00,
2013-04-18 04:18:00,59.5,56.3,30.30,North,356,0.0,0.0,89,-99.99,,CLR,-99.99,VWS V14.01,2013-04-18 08:18:00,
2013-04-18 04:19:00,59.5,56.3,30.30,North,356,0.0,0.0,89,-99.99,,CLR,-99.99,VWS V14.01,2013-04-18 08:19:00,
2013-04-18 04:20:00,59.5,56.6,30.30,North,356,0.0,0.0,90,-99.99,,CLR,-99.99,VWS V14.01,2013-04-18 08:20:00,
2013-04-18 04:23:00,59.7,56.8,30.30,North,356,0.0,0.0,90,-99.99,,CLR,-99.99,VWS V14.01,2013-04-18 08:23:00,
2013-04-18 04:24:00,59.7,56.8,30.30,North,356,0.0,0.0,90,-99.99,,CLR,-99.99,VWS V14.01,2013-04-18 08:24:00,
2013-04-18 04:26:00,59.7,56.8,30.30,North,356,0.0,0.0,90,-99.99,,CLR,-99.99,VWS V14.01,2013-04-18 08:26:00,
2013-04-18 04:28:00,59.7,57.1,30.30,North,356,0.0,0.0,91,-99.99,,CLR,-99.99,VWS V14.01,2013-04-18 08:28:00,
2013-04-18 04:29:00,59.7,57.1,30.30,North,356,0.0,0.0,91,-99.99,,CLR,-99.99,VWS V14.01,2013-04-18 08:29:00,
2013-04-18 04:30:00,59.7,57.1,30.30,North,356,0.0,0.0,91,-99.99,,CLR,-99.99,VWS V14.01,2013-04-18 08:30:00,
2013-04-18 04:31:00,59.7,57.1,30.30,North,356,0.0,0.0,91,-99.99,,CLR,-99.99,VWS V14.01,2013-04-18 08:31:00,
2013-04-18 04:32:00,59.7,57.1,30.30,North,356,0.0,0.0,91,-99.99,,CLR,-99.99,VWS V14.01,2013-04-18 08:32:00,
2013-04-18 04:33:00,59.7,57.1,30.30,North,356,0.0,0.0,91,-99.99,,CLR,-99.99,VWS V14.01,2013-04-18 08:33:00,
2013-04-18 04:35:00,59.7,57.1,30.30,North,356,0.0,0.0,91,-99.99,,CLR,-99.99,VWS V14.01,2013-04-18 08:35:00,
2013-04-18 04:36:00,59.9,57.3,30.30,North,356,0.0,0.0,91,-99.99,,CLR,-99.99,VWS V14.01,2013-04-18 08:36:00,
2013-04-18 04:38:00,59.7,57.4,30.30,North,356,0.0,0.0,92,-99.99,,CLR,-99.99,VWS V14.01,2013-04-18 08:38:00,
2013-04-18 04:41:00,59.7,57.4,30.30,North,356,0.0,0.0,92,-99.99,,CLR,-99.99,VWS V14.01,2013-04-18 08:41:00,
2013-04-18 04:42:00,59.7,57.4,30.30,North,356,0.0,0.0,92,-99.99,,CLR,-99.99,VWS V14.01,2013-04-18 08:42:00,
2013-04-18 04:44:00,59.7,57.4,30.30,North,356,0.0,0.0,92,-99.99,,CLR,-99.99,VWS V14.01,2013-04-18 08:44:00,
2013-04-18 04:45:00,59.7,57.4,30.30,North,356,0.0,0.0,92,-99.99,,CLR,-99.99,VWS V14.01,2013-04-18 08:45:00,
2013-04-18 04:46:00,59.7,57.4,30.30,North,356,0.0,0.0,92,-99.99,,CLR,-99.99,VWS V14.01,2013-04-18 08:46:00,
2013-04-18 04:47:00,59.7,57.4,30.30,North,356,0.0,0.0,92,-99.99,,CLR,-99.99,VWS V14.01,2013-04-18 08:47:00,
2013-04-18 04:50:00,59.7,57.7,30.30,North,356,0.0,0.0,93,-99.99,,CLR,-99.99,VWS V14.01,2013-04-18 08:50:00,
2013-04-18 04:51:00,59.7,57.7,30.30,North,356,0.0,0.0,93,-99.99,,CLR,-99.99,VWS V14.01,2013-04-18 08:51:00,
2013-04-18 04:52:00,59.7,57.7,30.30,North,356,0.0,0.0,93,-99.99,,CLR,-99.99,VWS V14.01,2013-04-18 08:52:00,
2013-04-18 04:53:00,59.7,57.7,30.30,North,356,0.0,0.0,93,-99.99,,CLR,-99.99,VWS V14.01,2013-04-18 08:53:00,
2013-04-18 04:55:00,59.2,56.9,30.30,North,356,0.0,0.0,92,-99.99,,CLR,-99.99,VWS V14.01,2013-04-18 08:55:00,
2013-04-18 04:56:00,59.2,56.9,30.30,North,356,0.0,0.0,92,-99.99,,CLR,-99.99,VWS V14.01,2013-04-18 08:56:00,
2013-04-18 04:58:00,59.0,56.7,30.30,North,356,0.0,0.0,92,-99.99,,CLR,-99.99,VWS V14.01,2013-04-18 08:58:00,
2013-04-18 04:59:00,58.8,56.5,30.30,North,356,0.0,0.0,92,-99.99,,CLR,-99.99,VWS V14.01,2013-04-18 08:59:00,
2013-04-18 05:01:00,58.6,56.3,30.30,North,356,0.0,0.0,92,-99.99,,CLR,-99.99,VWS V14.01,2013-04-18 09:01:00,
2013-04-18 05:02:00,58.6,56.3,30.30,North,356,0.0,0.0,92,-99.99,,CLR,-99.99,VWS V14.01,2013-04-18 09:02:00,
2013-04-18 05:03:00,58.5,56.2,30.30,North,356,0.0,0.0,92,-99.99,,CLR,-99.99,VWS V14.01,2013-04-18 09:03:00,
2013-04-18 05:04:00,58.5,56.2,30.30,North,356,0.0,0.0,92,-99.99,,CLR,-99.99,VWS V14.01,2013-04-18 09:04:00,
2013-04-18 05:06:00,58.1,55.8,30.30,North,356,0.0,0.0,92,-99.99,,CLR,-99.99,VWS V14.01,2013-04-18 09:06:00,
2013-04-18 05:07:00,58.1,55.8,30.30,North,356,0.0,0.0,92,-99.99,,CLR,-99.99,VWS V14.01,2013-04-18 09:07:00,
2013-04-18 05:08:00,58.1,55.8,30.30,North,356,0.0,0.0,92,-99.99,,CLR,-99.99,VWS V14.01,2013-04-18 09:08:00,
2013-04-18 05:09:00,57.9,55.6,30.30,North,356,0.0,0.0,92,-99.99,,CLR,-99.99,VWS V14.01,2013-04-18 09:09:00,
2013-04-18 05:12:00,57.7,55.4,30.30,North,356,0.0,0.0,92,-99.99,,CLR,-99.99,VWS V14.01,2013-04-18 09:12:00,
2013-04-18 05:14:00,57.7,55.4,30.30,North,356,0.0,0.0,92,-99.99,,CLR,-99.99,VWS V14.01,2013-04-18 09:14:00,
2013-04-18 05:15:00,57.7,55.4,30.30,North,356,0.0,0.0,92,-99.99,,CLR,-99.99,VWS V14.01,2013-04-18 09:15:00,
2013-04-18 05:16:00,57.7,55.4,30.30,North,356,0.0,0.0,92,-99.99,,CLR,-99.99,VWS V14.01,2013-04-18 09:16:00,
2013-04-18 05:19:00,57.7,55.4,30.30,North,356,0.0,0.0,92,-99.99,,CLR,-99.99,VWS V14.01,2013-04-18 09:19:00,
2013-04-18 05:20:00,57.7,55.4,30.30,North,356,0.0,0.0,92,-99.99,,CLR,-99.99,VWS V14.01,2013-04-18 09:20:00,
2013-04-18 05:21:00,57.7,55.7,30.30,North,356,0.0,0.0,93,-99.99,,CLR,-99.99,VWS V14.01,2013-04-18 09:21:00,
2013-04-18 05:24:00,57.7,55.7,30.30,North,356,0.0,0.0,93,-99.99,,CLR,-99.99,VWS V14.01,2013-04-18 09:24:00,
2013-04-18 05:25:00,57.7,55.7,30.30,North,356,0.0,0.0,93,-99.99,,CLR,-99.99,VWS V14.01,2013-04-18 09:25:00,
2013-04-18 05:26:00,57.7,55.7,30.30,North,356,0.0,0.0,93,-99.99,,CLR,-99.99,VWS V14.01,2013-04-18 09:26:00,
2013-04-18 05:27:00,57.7,55.7,30.30,North,356,0.0,0.0,93,-99.99,,CLR,-99.99,VWS V14.01,2013-04-18 09:27:00,
2013-04-18 05:30:00,57.6,55.6,30.30,North,356,0.0,0.0,93,-99.99,,CLR,-99.99,VWS V14.01,2013-04-18 09:30:00,
2013-04-18 05:31:00,57.6,55.6,30.30,North,356,0.0,0.0,93,-99.99,,CLR,-99.99,VWS V14.01,2013-04-18 09:31:00,
2013-04-18 05:32:00,57.6,55.6,30.30,North,356,0.0,0.0,93,-99.99,,CLR,-99.99,VWS V14.01,2013-04-18 09:32:00,
2013-04-18 05:33:00,57.6,55.6,30.30,North,356,0.0,0.0,93,-99.99,,CLR,-99.99,VWS V14.01,2013-04-18 09:33:00,
2013-04-18 05:35:00,57.4,55.4,30.30,North,356,0.0,0.0,93,-99.99,,CLR,-99.99,VWS V14.01,2013-04-18 09:35:00,
2013-04-18 05:36:00,57.4,55.4,30.30,North,356,0.0,0.0,93,-99.99,,CLR,-99.99,VWS V14.01,2013-04-18 09:36:00,
2013-04-18 05:37:00,57.4,55.4,30.30,North,356,0.0,0.0,93,-99.99,,CLR,-99.99,VWS V14.01,2013-04-18 09:37:00,
2013-04-18 05:38:00,57.4,55.4,30.30,North,356,0.0,0.0,93,-99.99,,CLR,-99.99,VWS V14.01,2013-04-18 09:38:00,
2013-04-18 05:39:00,57.4,55.4,30.30,North,356,0.0,0.0,93,-99.99,,CLR,-99.99,VWS V14.01,2013-04-18 09:39:00,
2013-04-18 05:41:00,57.4,55.4,30.30,North,356,0.0,0.0,93,-99.99,,CLR,-99.99,VWS V14.01,2013-04-18 09:41:00,
2013-04-18 05:43:00,57.4,55.4,30.30,North,356,0.0,0.0,93,-99.99,,CLR,-99.99,VWS V14.01,2013-04-18 09:43:00,
2013-04-18 05:45:00,57.4,55.4,30.30,North,356,0.0,0.0,93,-99.99,,CLR,-99.99,VWS V14.01,2013-04-18 09:45:00,
2013-04-18 05:46:00,57.4,55.4,30.30,North,356,0.0,0.0,93,-99.99,,CLR,-99.99,VWS V14.01,2013-04-18 09:46:00,
2013-04-18 05:48:00,57.4,55.4,30.30,North,356,0.0,0.0,93,-99.99,,CLR,-99.99,VWS V14.01,2013-04-18 09:48:00,
2013-04-18 05:50:00,57.4,55.4,30.30,North,356,0.0,0.0,93,-99.99,,CLR,-99.99,VWS V14.01,2013-04-18 09:50:00,
2013-04-18 05:51:00,57.4,55.4,30.30,North,356,0.0,0.0,93,-99.99,,CLR,-99.99,VWS V14.01,2013-04-18 09:51:00,
2013-04-18 05:52:00,57.4,55.4,30.30,North,356,0.0,0.0,93,-99.99,,CLR,-99.99,VWS V14.01,2013-04-18 09:52:00,
2013-04-18 05:53:00,57.4,55.4,30.30,North,356,0.0,0.0,93,-99.99,,CLR,-99.99,VWS V14.01,2013-04-18 09:53:00,
2013-04-18 05:55:00,57.4,55.4,30.30,North,356,0.0,0.0,93,-99.99,,CLR,-99.99,VWS V14.01,2013-04-18 09:55:00,
2013-04-18 05:57:00,57.4,55.4,30.30,North,356,0.0,0.0,93,-99.99,,CLR,-99.99,VWS V14.01,2013-04-18 09:57:00,
2013-04-18 05:58:00,57.4,55.4,30.30,North,356,0.0,0.0,93,-99.99,,CLR,-99.99,VWS V14.01,2013-04-18 09:58:00,
2013-04-18 05:59:00,57.4,55.4,30.30,North,356,0.0,0.0,93,-99.99,,,-99.99,VWS V14.01,2013-04-18 09:59:00,
2013-04-18 06:00:00,57.4,55.4,30.30,North,356,0.0,0.0,93,-99.99,,,-99.99,VWS V14.01,2013-04-18 10:00:00,
2013-04-18 06:02:00,57.4,55.4,30.30,North,356,0.0,0.0,93,-99.99,,,-99.99,VWS V14.01,2013-04-18 10:02:00,
2013-04-18 06:03:00,57.4,55.4,30.30,North,356,0.0,0.0,93,-99.99,,,-99.99,VWS V14.01,2013-04-18 10:03:00,
2013-04-18 06:04:00,57.4,55.4,30.30,North,356,0.0,0.0,93,-99.99,,,-99.99,VWS V14.01,2013-04-18 10:04:00,
2013-04-18 06:05:00,57.4,55.4,30.30,North,356,0.0,0.0,93,-99.99,,,-99.99,VWS V14.01,2013-04-18 10:05:00,
2013-04-18 06:06:00,57.4,55.4,30.30,North,356,0.0,0.0,93,-99.99,,,-99.99,VWS V14.01,2013-04-18 10:06:00,
2013-04-18 06:07:00,57.6,55.6,30.30,North,356,0.0,0.0,93,-99.99,,,-99.99,VWS V14.01,2013-04-18 10:07:00,
2013-04-18 06:08:00,57.6,55.6,30.30,North,356,0.0,0.0,93,-99.99,,,-99.99,VWS V14.01,2013-04-18 10:08:00,
2013-04-18 06:09:00,57.6,55.6,30.30,North,356,0.0,0.0,93,-99.99,,,-99.99,VWS V14.01,2013-04-18 10:09:00,
2013-04-18 06:10:00,57.6,55.6,30.30,North,356,0.0,0.0,93,-99.99,,,-99.99,VWS V14.01,2013-04-18 10:10:00,
2013-04-18 06:13:00,57.4,55.4,30.30,North,356,0.0,0.0,93,-99.99,,,-99.99,VWS V14.01,2013-04-18 10:13:00,
2013-04-18 06:15:00,57.4,55.4,30.30,North,356,0.0,0.0,93,-99.99,,,-99.99,VWS V14.01,2013-04-18 10:15:00,
2013-04-18 06:18:00,57.2,55.2,30.30,North,356,0.0,0.0,93,-99.99,,,-99.99,VWS V14.01,2013-04-18 10:18:00,
2013-04-18 06:19:00,57.2,55.2,30.30,North,356,0.0,0.0,93,-99.99,,,-99.99,VWS V14.01,2013-04-18 10:19:00,
2013-04-18 06:21:00,57.2,55.2,30.30,North,356,0.0,0.0,93,-99.99,,,-99.99,VWS V14.01,2013-04-18 10:21:00,
2013-04-18 06:23:00,57.2,55.2,30.30,North,356,0.0,0.0,93,-99.99,,,-99.99,VWS V14.01,2013-04-18 10:23:00,
2013-04-18 06:24:00,57.2,55.2,30.30,North,356,0.0,0.0,93,-99.99,,,-99.99,VWS V14.01,2013-04-18 10:24:00,
2013-04-18 06:26:00,57.2,55.2,30.30,North,356,0.0,0.0,93,-99.99,,,-99.99,VWS V14.01,2013-04-18 10:26:00,
2013-04-18 06:27:00,57.2,55.2,30.30,North,356,0.0,0.0,93,-99.99,,,-99.99,VWS V14.01,2013-04-18 10:27:00,
2013-04-18 06:28:00,57.2,55.2,30.30,North,356,0.0,0.0,93,-99.99,,,-99.99,VWS V14.01,2013-04-18 10:28:00,
2013-04-18 06:29:00,57.2,55.2,30.30,North,356,0.0,0.0,93,-99.99,,,-99.99,VWS V14.01,2013-04-18 10:29:00,
2013-04-18 06:31:00,57.0,55.0,30.30,North,356,0.0,0.0,93,-99.99,,,-99.99,VWS V14.01,2013-04-18 10:31:00,
2013-04-18 06:33:00,57.0,55.0,30.33,North,356,0.0,0.0,93,-99.99,,,-99.99,VWS V14.01,2013-04-18 10:33:00,
2013-04-18 06:35:00,57.0,55.0,30.33,North,356,0.0,0.0,93,-99.99,,,-99.99,VWS V14.01,2013-04-18 10:35:00,
2013-04-18 06:36:00,57.0,55.0,30.33,North,356,0.0,0.0,93,-99.99,,,-99.99,VWS V14.01,2013-04-18 10:36:00,
2013-04-18 06:37:00,56.8,54.8,30.33,North,356,0.0,0.0,93,-99.99,,,-99.99,VWS V14.01,2013-04-18 10:37:00,
2013-04-18 06:39:00,56.8,54.8,30.33,North,356,0.0,0.0,93,-99.99,,,-99.99,VWS V14.01,2013-04-18 10:39:00,
2013-04-18 06:41:00,57.0,55.0,30.33,North,356,0.0,0.0,93,-99.99,,,-99.99,VWS V14.01,2013-04-18 10:41:00,
2013-04-18 06:42:00,57.0,55.0,30.33,North,356,0.0,0.0,93,-99.99,,,-99.99,VWS V14.01,2013-04-18 10:42:00,
2013-04-18 06:44:00,57.0,55.0,30.33,North,356,0.0,0.0,93,-99.99,,,-99.99,VWS V14.01,2013-04-18 10:44:00,
2013-04-18 06:46:00,57.0,55.0,30.33,North,356,0.0,0.0,93,-99.99,,,-99.99,VWS V14.01,2013-04-18 10:46:00,
2013-04-18 06:47:00,57.0,55.0,30.33,North,356,0.0,0.0,93,-99.99,,,-99.99,VWS V14.01,2013-04-18 10:47:00,
2013-04-18 06:48:00,57.2,55.2,30.33,North,356,0.0,0.0,93,-99.99,,,-99.99,VWS V14.01,2013-04-18 10:48:00,
2013-04-18 06:50:00,57.2,55.2,30.33,North,356,0.0,0.0,93,-99.99,,,-99.99,VWS V14.01,2013-04-18 10:50:00,
2013-04-18 06:52:00,57.2,55.2,30.33,North,356,0.0,0.0,93,-99.99,,,-99.99,VWS V14.01,2013-04-18 10:52:00,
2013-04-18 06:53:00,57.2,55.2,30.33,North,356,0.0,0.0,93,-99.99,,,-99.99,VWS V14.01,2013-04-18 10:53:00,
2013-04-18 06:55:00,57.2,55.2,30.33,North,356,0.0,0.0,93,-99.99,,,-99.99,VWS V14.01,2013-04-18 10:55:00,
2013-04-18 06:57:00,57.2,55.2,30.33,North,356,0.0,0.0,93,-99.99,,,-99.99,VWS V14.01,2013-04-18 10:57:00,
2013-04-18 06:59:00,57.2,55.2,30.33,North,356,0.0,0.0,93,-99.99,,,-99.99,VWS V14.01,2013-04-18 10:59:00,
2013-04-18 07:01:00,57.2,55.2,30.33,North,356,0.0,0.0,93,-99.99,,,-99.99,VWS V14.01,2013-04-18 11:01:00,
2013-04-18 07:02:00,57.2,55.5,30.33,North,356,0.0,0.0,94,-99.99,,,-99.99,VWS V14.01,2013-04-18 11:02:00,
2013-04-18 07:04:00,57.2,55.5,30.33,North,356,0.0,0.0,94,-99.99,,,-99.99,VWS V14.01,2013-04-18 11:04:00,
2013-04-18 07:05:00,57.2,55.5,30.33,North,356,0.0,0.0,94,-99.99,,,-99.99,VWS V14.01,2013-04-18 11:05:00,
2013-04-18 07:06:00,57.4,55.7,30.33,North,356,0.0,0.0,94,-99.99,,,-99.99,VWS V14.01,2013-04-18 11:06:00,
2013-04-18 07:08:00,57.4,55.7,30.33,North,356,0.0,0.0,94,-99.99,,,-99.99,VWS V14.01,2013-04-18 11:08:00,
2013-04-18 07:11:00,57.4,55.7,30.33,North,356,0.0,0.0,94,-99.99,,,-99.99,VWS V14.01,2013-04-18 11:11:00,
2013-04-18 07:12:00,57.6,55.8,30.33,North,356,0.0,0.0,94,-99.99,,,-99.99,VWS V14.01,2013-04-18 11:12:00,
2013-04-18 07:13:00,57.6,55.8,30.33,North,356,0.0,0.0,94,-99.99,,,-99.99,VWS V14.01,2013-04-18 11:13:00,
2013-04-18 07:17:00,57.7,56.0,30.33,North,356,0.0,0.0,94,-99.99,,,-99.99,VWS V14.01,2013-04-18 11:17:00,
2013-04-18 07:18:00,57.9,56.2,30.33,North,356,0.0,8.7,94,-99.99,,,-99.99,VWS V14.01,2013-04-18 11:18:00,
2013-04-18 07:20:00,57.9,56.2,30.33,North,356,0.0,0.0,94,-99.99,,,-99.99,VWS V14.01,2013-04-18 11:20:00,
2013-04-18 07:22:00,58.1,56.4,30.33,North,356,0.0,0.0,94,-99.99,,,-99.99,VWS V14.01,2013-04-18 11:22:00,
2013-04-18 07:23:00,58.1,56.4,30.33,North,356,0.0,0.0,94,-99.99,,,-99.99,VWS V14.01,2013-04-18 11:23:00,
2013-04-18 07:24:00,58.1,56.4,30.33,North,356,0.0,0.0,94,-99.99,,,-99.99,VWS V14.01,2013-04-18 11:24:00,
2013-04-18 07:25:00,58.3,56.6,30.33,North,356,0.0,0.0,94,-99.99,,,-99.99,VWS V14.01,2013-04-18 11:25:00,
2013-04-18 07:27:00,58.3,56.6,30.33,North,356,0.0,0.0,94,-99.99,,,-99.99,VWS V14.01,2013-04-18 11:27:00,
2013-04-18 07:29:00,58.5,56.7,30.33,North,356,0.0,0.0,94,-99.99,,,-99.99,VWS V14.01,2013-04-18 11:29:00,
2013-04-18 07:31:00,58.6,56.9,30.33,North,356,0.0,0.0,94,-99.99,,,-99.99,VWS V14.01,2013-04-18 11:31:00,
2013-04-18 07:32:00,58.6,56.9,30.33,North,356,0.0,0.0,94,-99.99,,,-99.99,VWS V14.01,2013-04-18 11:32:00,
2013-04-18 07:34:00,58.6,56.9,30.33,North,356,0.0,0.0,94,-99.99,,,-99.99,VWS V14.01,2013-04-18 11:34:00,
2013-04-18 07:35:00,58.6,56.9,30.33,North,356,0.0,0.0,94,-99.99,,,-99.99,VWS V14.01,2013-04-18 11:35:00,
2013-04-18 07:37:00,58.6,56.9,30.33,North,356,0.0,0.0,94,-99.99,,,-99.99,VWS V14.01,2013-04-18 11:37:00,
2013-04-18 07:39:00,58.6,56.9,30.33,North,356,0.0,0.0,94,-99.99,,,-99.99,VWS V14.01,2013-04-18 11:39:00,
2013-04-18 07:40:00,58.6,56.9,30.33,North,356,0.0,0.0,94,-99.99,,,-99.99,VWS V14.01,2013-04-18 11:40:00,
2013-04-18 07:41:00,58.8,57.1,30.33,North,356,0.0,0.0,94,-99.99,,,-99.99,VWS V14.01,2013-04-18 11:41:00,
2013-04-18 07:42:00,58.8,57.1,30.33,North,356,0.0,0.0,94,-99.99,,,-99.99,VWS V14.01,2013-04-18 11:42:00,
2013-04-18 07:43:00,58.8,57.1,30.33,North,356,0.0,0.0,94,-99.99,,,-99.99,VWS V14.01,2013-04-18 11:43:00,
2013-04-18 07:45:00,58.8,57.1,30.33,North,356,0.0,0.0,94,-99.99,,,-99.99,VWS V14.01,2013-04-18 11:45:00,
2013-04-18 07:46:00,59.0,57.3,30.33,North,356,0.0,0.0,94,-99.99,,,-99.99,VWS V14.01,2013-04-18 11:46:00,
2013-04-18 07:47:00,59.0,57.3,30.33,North,356,0.0,0.0,94,-99.99,,,-99.99,VWS V14.01,2013-04-18 11:47:00,
2013-04-18 07:48:00,59.2,57.5,30.33,North,356,0.0,0.0,94,-99.99,,,-99.99,VWS V14.01,2013-04-18 11:48:00,
2013-04-18 07:50:00,59.4,57.9,30.33,North,0,0.0,0.0,95,-99.99,,,-99.99,VWS V14.01,2013-04-18 11:50:00,
2013-04-18 07:53:00,59.7,58.3,30.33,North,356,0.0,0.0,95,-99.99,,,-99.99,VWS V14.01,2013-04-18 11:53:00,
2013-04-18 07:55:00,60.1,58.7,30.33,North,0,0.0,0.0,95,-99.99,,,-99.99,VWS V14.01,2013-04-18 11:55:00,
2013-04-18 07:56:00,60.1,58.7,30.33,North,0,0.0,0.0,95,-99.99,,,-99.99,VWS V14.01,2013-04-18 11:56:00,
2013-04-18 07:58:00,60.3,58.8,30.33,North,356,0.0,0.0,95,-99.99,,,-99.99,VWS V14.01,2013-04-18 11:58:00,
2013-04-18 08:00:00,60.4,59.0,30.33,North,356,0.0,0.0,95,-99.99,,,-99.99,VWS V14.01,2013-04-18 12:00:00,
2013-04-18 08:01:00,60.6,59.2,30.33,North,356,0.0,0.0,95,-99.99,,,-99.99,VWS V14.01,2013-04-18 12:01:00,
2013-04-18 08:03:00,60.8,59.4,30.36,North,2,0.0,0.0,95,-99.99,,,-99.99,VWS V14.01,2013-04-18 12:03:00,
2013-04-18 08:04:00,60.8,59.4,30.36,North,2,0.0,0.0,95,-99.99,,,-99.99,VWS V14.01,2013-04-18 12:04:00,
2013-04-18 08:06:00,61.0,59.5,30.36,North,3,0.0,0.0,95,-99.99,,,-99.99,VWS V14.01,2013-04-18 12:06:00,
2013-04-18 08:07:00,61.0,59.5,30.36,North,2,0.0,0.0,95,-99.99,,,-99.99,VWS V14.01,2013-04-18 12:07:00,
2013-04-18 08:08:00,61.2,59.7,30.36,North,2,0.0,0.0,95,-99.99,,,-99.99,VWS V14.01,2013-04-18 12:08:00,
2013-04-18 08:09:00,61.2,59.7,30.36,North,1,0.0,0.0,95,-99.99,,,-99.99,VWS V14.01,2013-04-18 12:09:00,
2013-04-18 08:10:00,61.3,60.2,30.36,North,1,0.0,0.0,96,-99.99,,,-99.99,VWS V14.01,2013-04-18 12:10:00,
2013-04-18 08:11:00,61.3,60.2,30.36,North,1,0.0,0.0,96,-99.99,,,-99.99,VWS V14.01,2013-04-18 12:11:00,
2013-04-18 08:12:00,61.5,60.4,30.36,North,2,0.0,0.0,96,-99.99,,,-99.99,VWS V14.01,2013-04-18 12:12:00,
2013-04-18 08:13:00,61.7,60.5,30.36,North,2,0.0,0.0,96,-99.99,,,-99.99,VWS V14.01,2013-04-18 12:13:00,
2013-04-18 08:15:00,61.9,60.4,30.36,North,1,0.0,0.0,95,-99.99,,,-99.99,VWS V14.01,2013-04-18 12:15:00,
2013-04-18 08:17:00,62.2,61.1,30.36,North,2,0.0,0.0,96,-99.99,,,-99.99,VWS V14.01,2013-04-18 12:17:00,
2013-04-18 08:19:00,62.6,61.5,30.33,North,2,0.0,0.0,96,-99.99,,,-99.99,VWS V14.01,2013-04-18 12:19:00,
2013-04-18 08:21:00,63.1,62.0,30.33,North,2,0.0,0.0,96,-99.99,,,-99.99,VWS V14.01,2013-04-18 12:21:00,
2013-04-18 08:22:00,63.5,62.3,30.33,North,1,0.0,0.0,96,-99.99,,,-99.99,VWS V14.01,2013-04-18 12:22:00,
2013-04-18 08:25:00,64.2,63.1,30.33,North,1,0.0,3.1,96,-99.99,,,-99.99,VWS V14.01,2013-04-18 12:25:00,
2013-04-18 08:26:00,64.4,63.2,30.33,North,2,3.6,4.0,96,-99.99,,,-99.99,VWS V14.01,2013-04-18 12:26:00,
2013-04-18 08:27:00,64.6,63.4,30.33,North,2,0.0,3.6,96,-99.99,,,-99.99,VWS V14.01,2013-04-18 12:27:00,
2013-04-18 08:30:00,65.1,64.0,30.33,North,0,0.0,0.0,96,-99.99,,,-99.99,VWS V14.01,2013-04-18 12:30:00,
2013-04-18 08:32:00,65.5,64.0,30.33,North,356,4.5,4.9,95,-99.99,,,-99.99,VWS V14.01,2013-04-18 12:32:00,
2013-04-18 08:34:00,65.7,64.2,30.36,North,356,0.0,3.6,95,-99.99,,,-99.99,VWS V14.01,2013-04-18 12:34:00,
2013-04-18 08:35:00,65.8,64.4,30.36,North,356,4.0,4.9,95,-99.99,,,-99.99,VWS V14.01,2013-04-18 12:35:00,
2013-04-18 08:37:00,66.2,64.4,30.36,North,356,0.0,2.7,94,-99.99,,,-99.99,VWS V14.01,2013-04-18 12:37:00,
2013-04-18 08:39:00,66.4,64.3,30.36,North,356,3.6,5.8,93,-99.99,,,-99.99,VWS V14.01,2013-04-18 12:39:00,
2013-04-18 08:40:00,66.6,64.2,30.36,North,356,0.0,0.0,92,-99.99,,,-99.99,VWS V14.01,2013-04-18 12:40:00,
2013-04-18 08:42:00,66.7,63.7,30.36,North,356,3.6,6.3,90,-99.99,,,-99.99,VWS V14.01,2013-04-18 12:42:00,
2013-04-18 08:43:00,67.1,63.8,30.36,North,356,4.9,5.4,89,-99.99,,,-99.99,VWS V14.01,2013-04-18 12:43:00,
2013-04-18 08:44:00,67.3,63.6,30.36,NE,48,0.0,0.0,88,-99.99,,,-99.99,VWS V14.01,2013-04-18 12:44:00,
2013-04-18 08:45:00,67.3,63.6,30.36,NE,37,0.0,0.0,88,-99.99,,,-99.99,VWS V14.01,2013-04-18 12:45:00,
2013-04-18 08:48:00,67.6,63.6,30.36,NNE,18,4.0,4.0,87,-99.99,,,-99.99,VWS V14.01,2013-04-18 12:48:00,
2013-04-18 08:50:00,68.0,64.0,30.36,NNE,12,0.0,2.7,87,-99.99,,,-99.99,VWS V14.01,2013-04-18 12:50:00,
2013-04-18 08:52:00,68.4,64.3,30.36,North,7,0.0,0.0,87,-99.99,,,-99.99,VWS V14.01,2013-04-18 12:52:00,
2013-04-18 08:53:00,68.4,64.0,30.36,North,7,0.0,0.0,86,-99.99,,,-99.99,VWS V14.01,2013-04-18 12:53:00,
2013-04-18 08:55:00,68.2,63.2,30.36,North,6,0.0,4.0,84,-99.99,,,-99.99,VWS V14.01,2013-04-18 12:55:00,
2013-04-18 08:58:00,68.0,62.3,30.36,North,4,0.0,0.0,82,-99.99,,CLR,-99.99,VWS V14.01,2013-04-18 12:58:00,
2013-04-18 09:00:00,68.0,62.3,30.36,North,2,0.0,0.0,82,-99.99,,CLR,-99.99,VWS V14.01,2013-04-18 13:00:00,
2013-04-18 09:01:00,68.0,62.0,30.36,North,1,0.0,0.0,81,-99.99,,CLR,-99.99,VWS V14.01,2013-04-18 13:01:00,
2013-04-18 09:02:00,68.0,62.0,30.36,North,1,0.0,0.0,81,-99.99,,CLR,-99.99,VWS V14.01,2013-04-18 13:02:00,
2013-04-18 09:04:00,67.8,61.4,30.36,North,0,0.0,0.0,80,-99.99,,CLR,-99.99,VWS V14.01,2013-04-18 13:04:00,
2013-04-18 09:05:00,67.8,61.4,30.36,North,0,0.0,3.1,80,-99.99,,CLR,-99.99,VWS V14.01,2013-04-18 13:05:00,
2013-04-18 09:06:00,67.6,61.3,30.36,North,0,3.6,4.0,80,-99.99,,CLR,-99.99,VWS V14.01,2013-04-18 13:06:00,
2013-04-18 09:07:00,67.6,60.9,30.36,North,0,0.0,4.0,79,-99.99,,CLR,-99.99,VWS V14.01,2013-04-18 13:07:00,
2013-04-18 09:09:00,67.6,60.9,30.36,North,0,0.0,0.0,79,-99.99,,CLR,-99.99,VWS V14.01,2013-04-18 13:09:00,
2013-04-18 09:10:00,67.8,61.1,30.36,North,0,0.0,4.0,79,-99.99,,CLR,-99.99,VWS V14.01,2013-04-18 13:10:00,
2013-04-18 09:11:00,67.8,61.1,30.36,North,0,4.0,4.0,79,-99.99,,CLR,-99.99,VWS V14.01,2013-04-18 13:11:00,
2013-04-18 09:12:00,67.8,61.1,30.36,North,0,2.7,3.1,79,-99.99,,CLR,-99.99,VWS V14.01,2013-04-18 13:12:00,
2013-04-18 09:14:00,68.0,61.2,30.36,North,356,0.0,0.0,79,-99.99,,CLR,-99.99,VWS V14.01,2013-04-18 13:14:00,
2013-04-18 09:17:00,68.7,62.3,30.36,North,356,0.0,0.0,80,-99.99,,CLR,-99.99,VWS V14.01,2013-04-18 13:17:00,
2013-04-18 09:19:00,69.3,62.8,30.36,North,356,0.0,4.0,80,-99.99,,CLR,-99.99,VWS V14.01,2013-04-18 13:19:00,
2013-04-18 09:20:00,69.4,63.0,30.36,North,356,3.1,4.9,80,-99.99,,CLR,-99.99,VWS V14.01,2013-04-18 13:20:00,
2013-04-18 09:21:00,69.8,63.4,30.36,North,356,2.7,4.5,80,-99.99,,CLR,-99.99,VWS V14.01,2013-04-18 13:21:00,
2013-04-18 09:22:00,70.2,63.7,30.36,North,356,0.0,4.5,80,-99.99,,CLR,-99.99,VWS V14.01,2013-04-18 13:22:00,
2013-04-18 09:24:00,70.5,61.8,30.36,North,0,3.1,4.9,74,-99.99,,CLR,-99.99,VWS V14.01,2013-04-18 13:24:00,
2013-04-18 09:25:00,70.5,61.5,30.36,North,356,2.7,4.9,73,-99.99,,CLR,-99.99,VWS V14.01,2013-04-18 13:25:00,
2013-04-18 09:26:00,70.5,60.7,30.36,North,0,3.1,4.0,71,-99.99,,CLR,-99.99,VWS V14.01,2013-04-18 13:26:00,
2013-04-18 09:27:00,70.7,60.5,30.36,North,356,4.5,5.4,70,-99.99,,CLR,-99.99,VWS V14.01,2013-04-18 13:27:00,
2013-04-18 09:29:00,70.7,60.5,30.36,North,0,0.0,0.0,70,-99.99,,CLR,-99.99,VWS V14.01,2013-04-18 13:29:00,
2013-04-18 09:30:00,70.7,60.5,30.36,North,356,0.0,0.0,70,-99.99,,CLR,-99.99,VWS V14.01,2013-04-18 13:30:00,
2013-04-18 09:32:00,70.5,60.3,30.36,North,356,3.1,4.5,70,-99.99,,CLR,-99.99,VWS V14.01,2013-04-18 13:32:00,
2013-04-18 09:33:00,70.5,60.3,30.36,North,0,0.0,0.0,70,-99.99,,CLR,-99.99,VWS V14.01,2013-04-18 13:33:00,
2013-04-18 09:35:00,70.5,59.9,30.36,North,356,3.1,3.6,69,-99.99,,CLR,-99.99,VWS V14.01,2013-04-18 13:35:00,
2013-04-18 09:36:00,70.3,59.3,30.36,North,356,0.0,3.6,68,-99.99,,CLR,-99.99,VWS V14.01,2013-04-18 13:36:00,
2013-04-18 09:38:00,70.3,59.3,30.36,North,356,4.0,5.4,68,-99.99,,CLR,-99.99,VWS V14.01,2013-04-18 13:38:00,
2013-04-18 09:39:00,70.2,58.7,30.36,North,0,0.0,5.4,67,-99.99,,CLR,-99.99,VWS V14.01,2013-04-18 13:39:00,
2013-04-18 09:41:00,69.8,57.9,30.36,North,356,6.3,8.3,66,-99.99,,CLR,-99.99,VWS V14.01,2013-04-18 13:41:00,
2013-04-18 09:42:00,69.8,58.4,30.36,North,356,8.3,8.3,67,-99.99,,CLR,-99.99,VWS V14.01,2013-04-18 13:42:00,
2013-04-18 09:46:00,69.4,58.4,30.36,North,0,4.0,6.3,68,-99.99,,CLR,-99.99,VWS V14.01,2013-04-18 13:46:00,
2013-04-18 09:47:00,69.4,58.8,30.36,North,356,0.0,4.0,69,-99.99,,CLR,-99.99,VWS V14.01,2013-04-18 13:47:00,
2013-04-18 09:48:00,69.6,59.0,30.36,North,356,5.8,5.8,69,-99.99,,CLR,-99.99,VWS V14.01,2013-04-18 13:48:00,
2013-04-18 09:50:00,69.6,59.0,30.36,North,356,4.0,4.9,69,-99.99,,CLR,-99.99,VWS V14.01,2013-04-18 13:50:00,
2013-04-18 09:53:00,70.2,59.9,30.36,North,356,4.9,5.4,70,-99.99,,CLR,-99.99,VWS V14.01,2013-04-18 13:53:00,
2013-04-18 09:54:00,70.2,59.5,30.36,North,356,4.0,5.8,69,-99.99,,CLR,-99.99,VWS V14.01,2013-04-18 13:54:00,
2013-04-18 09:55:00,70.5,59.9,30.36,North,356,5.8,5.8,69,-99.99,,CLR,-99.99,VWS V14.01,2013-04-18 13:55:00,
2013-04-18 09:58:00,71.4,61.1,30.36,North,356,5.4,5.4,70,-99.99,,CLR,-99.99,VWS V14.01,2013-04-18 13:58:00,
2013-04-18 09:59:00,71.8,61.1,30.36,North,356,2.7,4.5,69,-99.99,,CLR,-99.99,VWS V14.01,2013-04-18 13:59:00,
2013-04-18 10:00:00,71.8,60.7,30.36,North,356,6.7,6.7,68,-99.99,,CLR,-99.99,VWS V14.01,2013-04-18 14:00:00,
2013-04-18 10:04:00,72.5,60.1,30.36,North,356,4.0,4.9,65,-99.99,,CLR,-99.99,VWS V14.01,2013-04-18 14:04:00,
2013-04-18 10:05:00,72.5,59.6,30.36,North,356,4.9,6.3,64,-99.99,,FEW022,-99.99,VWS V14.01,2013-04-18 14:05:00,
2013-04-18 10:06:00,72.5,59.2,30.36,North,356,5.4,5.4,63,-99.99,,FEW022,-99.99,VWS V14.01,2013-04-18 14:06:00,
2013-04-18 10:08:00,72.3,59.0,30.36,North,356,6.3,6.9,63,-99.99,,FEW022,-99.99,VWS V14.01,2013-04-18 14:08:00,
2013-04-18 10:09:00,72.1,58.9,30.36,North,356,0.0,0.0,63,-99.99,,FEW022,-99.99,VWS V14.01,2013-04-18 14:09:00,
2013-04-18 10:10:00,72.0,58.7,30.36,North,356,3.6,4.5,63,-99.99,,FEW022,-99.99,VWS V14.01,2013-04-18 14:10:00,
2013-04-18 10:12:00,71.8,58.5,30.36,North,0,5.4,5.4,63,-99.99,,FEW022,-99.99,VWS V14.01,2013-04-18 14:12:00,
2013-04-18 10:13:00,71.8,59.0,30.36,North,0,4.0,5.4,64,-99.99,,FEW022,-99.99,VWS V14.01,2013-04-18 14:13:00,
2013-04-18 10:14:00,71.4,58.6,30.36,North,0,4.0,5.4,64,-99.99,,FEW022,-99.99,VWS V14.01,2013-04-18 14:14:00,
2013-04-18 10:18:00,71.4,59.0,30.36,North,356,3.6,6.3,65,-99.99,,FEW022,-99.99,VWS V14.01,2013-04-18 14:18:00,
2013-04-18 10:19:00,71.4,58.6,30.36,North,0,2.7,4.5,64,-99.99,,FEW022,-99.99,VWS V14.01,2013-04-18 14:19:00,
2013-04-18 10:20:00,71.4,58.6,30.36,North,0,3.1,4.5,64,-99.99,,FEW022,-99.99,VWS V14.01,2013-04-18 14:20:00,
2013-04-18 10:23:00,71.2,58.9,30.36,North,0,4.9,6.7,65,-99.99,,FEW022,-99.99,VWS V14.01,2013-04-18 14:23:00,
2013-04-18 10:24:00,71.2,58.9,30.36,North,0,4.9,8.7,65,-99.99,,FEW022,-99.99,VWS V14.01,2013-04-18 14:24:00,
2013-04-18 10:25:00,71.1,58.7,30.36,North,356,6.7,8.3,65,-99.99,,BKN022,-99.99,VWS V14.01,2013-04-18 14:25:00,
2013-04-18 10:27:00,71.1,58.7,30.36,North,356,2.7,5.8,65,-99.99,,BKN022,-99.99,VWS V14.01,2013-04-18 14:27:00,
2013-04-18 10:29:00,71.1,58.7,30.36,North,356,4.9,5.8,65,-99.99,,BKN022,-99.99,VWS V14.01,2013-04-18 14:29:00,
2013-04-18 10:30:00,71.1,58.7,30.36,North,356,5.8,6.7,65,-99.99,,BKN022,-99.99,VWS V14.01,2013-04-18 14:30:00,
2013-04-18 10:31:00,71.2,59.3,30.36,North,356,3.1,4.5,66,-99.99,,BKN022,-99.99,VWS V14.01,2013-04-18 14:31:00,
2013-04-18 10:33:00,71.4,59.5,30.36,North,356,6.3,6.3,66,-99.99,,BKN022,-99.99,VWS V14.01,2013-04-18 14:33:00,
2013-04-18 10:34:00,71.6,59.7,30.36,North,356,3.6,6.3,66,-99.99,,BKN022,-99.99,VWS V14.01,2013-04-18 14:34:00,
2013-04-18 10:35:00,72.0,60.0,30.36,North,356,4.0,5.4,66,-99.99,,BKN022,-99.99,VWS V14.01,2013-04-18 14:35:00,
2013-04-18 10:36:00,72.3,60.3,30.36,North,356,5.8,6.7,66,-99.99,,BKN022,-99.99,VWS V14.01,2013-04-18 14:36:00,
2013-04-18 10:38:00,72.9,60.0,30.36,North,356,4.9,5.4,64,-99.99,,BKN022,-99.99,VWS V14.01,2013-04-18 14:38:00,
2013-04-18 10:40:00,73.2,59.4,30.36,North,356,4.0,6.3,62,-99.99,,SCT022,-99.99,VWS V14.01,2013-04-18 14:40:00,
2013-04-18 10:41:00,73.4,59.2,30.36,North,0,7.4,7.4,61,-99.99,,SCT022,-99.99,VWS V14.01,2013-04-18 14:41:00,
2013-04-18 10:43:00,74.3,59.5,30.36,North,0,4.9,5.4,60,-99.99,,SCT022,-99.99,VWS V14.01,2013-04-18 14:43:00,
2013-04-18 10:46:00,75.4,57.1,30.36,North,356,6.3,6.3,53,-99.99,,SCT022,-99.99,VWS V14.01,2013-04-18 14:46:00,
2013-04-18 10:47:00,75.6,56.7,30.36,North,356,2.7,4.5,52,-99.99,,SCT022,-99.99,VWS V14.01,2013-04-18 14:47:00,
2013-04-18 10:48:00,75.6,56.7,30.36,North,356,4.5,6.3,52,-99.99,,SCT022,-99.99,VWS V14.01,2013-04-18 14:48:00,
2013-04-18 10:49:00,75.6,55.6,30.36,North,356,3.6,5.4,50,-99.99,,SCT022,-99.99,VWS V14.01,2013-04-18 14:49:00,
2013-04-18 10:50:00,75.7,55.8,30.36,North,356,4.9,5.8,50,-99.99,,SCT022,-99.99,VWS V14.01,2013-04-18 14:50:00,
2013-04-18 10:52:00,76.3,56.3,30.36,North,356,5.4,5.8,50,-99.99,,SCT022,-99.99,VWS V14.01,2013-04-18 14:52:00,
2013-04-18 10:53:00,76.6,56.6,30.36,North,356,6.9,6.9,50,-99.99,,SCT022,-99.99,VWS V14.01,2013-04-18 14:53:00,
2013-04-18 10:55:00,77.2,56.0,30.36,North,356,3.6,6.9,48,-99.99,,SCT022,-99.99,VWS V14.01,2013-04-18 14:55:00,
2013-04-18 10:57:00,77.4,55.6,30.36,North,356,4.0,4.0,47,-99.99,,SCT022,-99.99,VWS V14.01,2013-04-18 14:57:00,
2013-04-18 10:58:00,77.4,56.2,30.36,North,356,6.9,6.9,48,-99.99,,SCT022,-99.99,VWS V14.01,2013-04-18 14:58:00,
2013-04-18 10:59:00,77.5,56.3,30.36,North,356,4.9,8.3,48,-99.99,,SCT022,-99.99,VWS V14.01,2013-04-18 14:59:00,
2013-04-18 11:02:00,77.9,56.1,30.36,North,356,4.9,6.3,47,-99.99,,SCT022,-99.99,VWS V14.01,2013-04-18 15:02:00,
2013-04-18 11:03:00,78.1,56.2,30.33,North,356,0.0,6.3,47,-99.99,,SCT022,-99.99,VWS V14.01,2013-04-18 15:03:00,
2013-04-18 11:04:00,78.3,55.2,30.33,North,0,6.7,6.9,45,-99.99,,SCT022,-99.99,VWS V14.01,2013-04-18 15:04:00,
2013-04-18 11:06:00,77.7,53.5,30.33,North,356,6.3,8.7,43,-99.99,,SCT022,-99.99,VWS V14.01,2013-04-18 15:06:00,
2013-04-18 11:08:00,77.4,53.8,30.33,North,356,4.5,6.3,44,-99.99,,SCT022,-99.99,VWS V14.01,2013-04-18 15:08:00,
2013-04-18 11:09:00,77.4,53.8,30.33,North,356,6.7,6.9,44,-99.99,,SCT022,-99.99,VWS V14.01,2013-04-18 15:09:00,
2013-04-18 11:10:00,77.0,53.4,30.33,North,356,5.8,7.8,44,-99.99,,SCT022,-99.99,VWS V14.01,2013-04-18 15:10:00,
2013-04-18 11:11:00,76.8,53.3,30.33,North,356,3.1,4.9,44,-99.99,,SCT022,-99.99,VWS V14.01,2013-04-18 15:11:00,
2013-04-18 11:15:00,75.7,53.5,30.33,North,356,5.4,8.3,46,-99.99,,SCT022,-99.99,VWS V14.01,2013-04-18 15:15:00,
2013-04-18 11:16:00,75.4,53.8,30.33,North,0,4.9,7.8,47,-99.99,,SCT022,-99.99,VWS V14.01,2013-04-18 15:16:00,
2013-04-18 11:18:00,74.7,53.7,30.33,North,0,4.5,8.3,48,-99.99,,SCT022,-99.99,VWS V14.01,2013-04-18 15:18:00,
2013-04-18 11:21:00,74.8,55.5,30.33,North,356,3.6,5.8,51,-99.99,,SCT022,-99.99,VWS V14.01,2013-04-18 15:21:00,
2013-04-18 11:22:00,74.8,55.5,30.33,North,356,4.0,5.8,51,-99.99,,SCT022,-99.99,VWS V14.01,2013-04-18 15:22:00,
2013-04-18 11:23:00,75.0,55.7,30.33,North,0,4.9,6.9,51,-99.99,,SCT022,-99.99,VWS V14.01,2013-04-18 15:23:00,
2013-04-18 11:24:00,75.2,55.8,30.33,North,356,4.0,9.2,51,-99.99,,SCT022,-99.99,VWS V14.01,2013-04-18 15:24:00,
2013-04-18 11:27:00,76.1,55.0,30.33,North,356,2.7,6.9,48,-99.99,,SCT022,-99.99,VWS V14.01,2013-04-18 15:27:00,
2013-04-18 11:29:00,76.8,56.2,30.33,North,356,6.3,6.3,49,-99.99,,SCT022,-99.99,VWS V14.01,2013-04-18 15:29:00,
2013-04-18 11:30:00,76.8,55.7,30.33,North,356,4.0,6.7,48,-99.99,,SCT022,-99.99,VWS V14.01,2013-04-18 15:30:00,
2013-04-18 11:31:00,77.2,54.2,30.33,North,0,0.0,4.9,45,-99.99,,SCT022,-99.99,VWS V14.01,2013-04-18 15:31:00,
2013-04-18 11:32:00,77.2,54.8,30.33,North,356,4.9,4.9,46,-99.99,,SCT022,-99.99,VWS V14.01,2013-04-18 15:32:00,
2013-04-18 11:34:00,77.2,54.8,30.33,North,356,5.8,7.4,46,-99.99,,SCT022,-99.99,VWS V14.01,2013-04-18 15:34:00,
2013-04-18 11:35:00,77.4,55.6,30.33,North,356,4.0,4.0,47,-99.99,,SCT022,-99.99,VWS V14.01,2013-04-18 15:35:00,
2013-04-18 11:36:00,77.5,55.7,30.33,North,356,6.7,6.7,47,-99.99,,SCT022,-99.99,VWS V14.01,2013-04-18 15:36:00,
2013-04-18 11:37:00,77.5,53.3,30.33,North,356,3.6,6.7,43,-99.99,,SCT022,-99.99,VWS V14.01,2013-04-18 15:37:00,
2013-04-18 11:38:00,77.9,53.6,30.33,North,356,10.1,10.1,43,-99.99,,SCT022,-99.99,VWS V14.01,2013-04-18 15:38:00,
2013-04-18 11:40:00,78.1,53.2,30.33,North,356,6.9,8.7,42,-99.99,,SCT022,-99.99,VWS V14.01,2013-04-18 15:40:00,
2013-04-18 11:42:00,78.3,54.0,30.33,North,356,4.0,4.0,43,-99.99,,SCT022,-99.99,VWS V14.01,2013-04-18 15:42:00,
2013-04-18 11:43:00,78.1,53.2,30.33,North,0,5.4,9.2,42,-99.99,,SCT022,-99.99,VWS V14.01,2013-04-18 15:43:00,
2013-04-18 11:44:00,78.3,53.3,30.33,North,356,5.4,6.3,42,-99.99,,SCT022,-99.99,VWS V14.01,2013-04-18 15:44:00,
2013-04-18 11:46:00,78.1,53.2,30.33,North,356,4.5,6.7,42,-99.99,,SCT022,-99.99,VWS V14.01,2013-04-18 15:46:00,
2013-04-18 11:48:00,77.9,53.6,30.33,North,356,5.8,6.9,43,-99.99,,SCT022,-99.99,VWS V14.01,2013-04-18 15:48:00,
2013-04-18 11:49:00,77.7,53.5,30.33,North,356,6.3,6.3,43,-99.99,,SCT022,-99.99,VWS V14.01,2013-04-18 15:49:00,
2013-04-18 11:52:00,76.8,53.3,30.33,North,356,4.0,4.5,44,-99.99,,SCT022,-99.99,VWS V14.01,2013-04-18 15:52:00,
2013-04-18 11:53:00,76.5,53.6,30.33,North,356,3.1,3.1,45,-99.99,,SCT022,-99.99,VWS V14.01,2013-04-18 15:53:00,
2013-04-18 11:54:00,76.3,54.0,30.33,North,356,6.3,6.3,46,-99.99,,SCT022,-99.99,VWS V14.01,2013-04-18 15:54:00,
2013-04-18 11:55:00,76.3,54.6,30.33,North,0,4.9,5.8,47,-99.99,,SCT022,-99.99,VWS V14.01,2013-04-18 15:55:00,
2013-04-18 11:57:00,75.9,54.3,30.33,North,356,6.7,6.7,47,-99.99,,SCT022,-99.99,VWS V14.01,2013-04-18 15:57:00,
2013-04-18 11:59:00,76.1,54.4,30.33,North,0,3.6,4.5,47,-99.99,,SCT022,-99.99,VWS V14.01,2013-04-18 15:59:00,
2013-04-18 12:01:00,76.3,54.6,30.33,North,0,6.3,6.7,47,-99.99,,BKN055,-99.99,VWS V14.01,2013-04-18 16:01:00,
2013-04-18 12:03:00,76.6,54.3,30.33,North,356,4.9,5.4,46,-99.99,,BKN055,-99.99,VWS V14.01,2013-04-18 16:03:00,
2013-04-18 12:04:00,76.8,55.1,30.33,North,0,7.4,9.2,47,-99.99,,BKN055,-99.99,VWS V14.01,2013-04-18 16:04:00,
2013-04-18 12:05:00,76.8,54.5,30.33,North,356,6.3,10.1,46,-99.99,,BKN055,-99.99,VWS V14.01,2013-04-18 16:05:00,
2013-04-18 12:07:00,77.4,55.0,30.33,North,356,6.3,7.8,46,-99.99,,BKN055,-99.99,VWS V14.01,2013-04-18 16:07:00,
2013-04-18 12:09:00,78.1,55.6,30.33,North,356,3.1,3.6,46,-99.99,,BKN055,-99.99,VWS V14.01,2013-04-18 16:09:00,
2013-04-18 12:10:00,78.4,56.0,30.33,North,356,6.9,8.3,46,-99.99,,BKN055,-99.99,VWS V14.01,2013-04-18 16:10:00,
2013-04-18 12:11:00,78.6,55.5,30.33,North,356,5.8,8.3,45,-99.99,,BKN055,-99.99,VWS V14.01,2013-04-18 16:11:00,
2013-04-18 12:12:00,78.6,54.9,30.33,North,356,6.7,7.4,44,-99.99,,BKN055,-99.99,VWS V14.01,2013-04-18 16:12:00,
2013-04-18 12:14:00,78.3,54.0,30.33,North,356,4.0,6.3,43,-99.99,,BKN055,-99.99,VWS V14.01,2013-04-18 16:14:00,
2013-04-18 12:15:00,78.4,54.7,30.33,North,356,5.4,6.3,44,-99.99,,BKN055,-99.99,VWS V14.01,2013-04-18 16:15:00,
2013-04-18 12:16:00,78.4,55.4,30.33,North,356,4.0,7.4,45,-99.99,,BKN055,-99.99,VWS V14.01,2013-04-18 16:16:00,
2013-04-18 12:17:00,78.8,55.7,30.33,North,356,5.8,6.7,45,-99.99,,BKN055,-99.99,VWS V14.01,2013-04-18 16:17:00,
2013-04-18 12:19:00,79.5,55.1,30.33,North,356,6.9,6.9,43,-99.99,,BKN055,-99.99,VWS V14.01,2013-04-18 16:19:00,
2013-04-18 12:21:00,79.3,53.6,30.33,North,356,7.4,7.4,41,-99.99,,BKN055,-99.99,VWS V14.01,2013-04-18 16:21:00,
2013-04-18 12:22:00,79.2,54.1,30.33,North,0,3.1,8.7,42,-99.99,,BKN055,-99.99,VWS V14.01,2013-04-18 16:22:00,
2013-04-18 12:24:00,79.0,54.0,30.33,North,356,4.5,6.3,42,-99.99,,BKN055,-99.99,VWS V14.01,2013-04-18 16:24:00,
2013-04-18 12:27:00,79.0,53.3,30.33,North,356,6.7,8.3,41,-99.99,,BKN055,-99.99,VWS V14.01,2013-04-18 16:27:00,
2013-04-18 12:28:00,78.6,53.0,30.33,North,356,5.8,8.3,41,-99.99,,BKN055,-99.99,VWS V14.01,2013-04-18 16:28:00,
2013-04-18 12:29:00,78.6,53.6,30.33,North,0,7.8,7.8,42,-99.99,,BKN055,-99.99,VWS V14.01,2013-04-18 16:29:00,
2013-04-18 12:33:00,78.6,54.3,30.33,North,356,4.9,5.8,43,-99.99,,BKN055,-99.99,VWS V14.01,2013-04-18 16:33:00,
2013-04-18 12:34:00,78.6,54.9,30.33,North,356,4.0,6.3,44,-99.99,,BKN055,-99.99,VWS V14.01,2013-04-18 16:34:00,
2013-04-18 12:35:00,78.4,54.1,30.33,North,356,6.7,6.7,43,-99.99,,BKN055,-99.99,VWS V14.01,2013-04-18 16:35:00,
2013-04-18 12:38:00,78.4,53.5,30.33,North,356,5.8,6.3,42,-99.99,,BKN055,-99.99,VWS V14.01,2013-04-18 16:38:00,
2013-04-18 12:39:00,78.3,53.3,30.33,North,0,6.3,6.9,42,-99.99,,BKN055,-99.99,VWS V14.01,2013-04-18 16:39:00,
2013-04-18 12:40:00,77.9,53.6,30.33,North,356,6.3,7.4,43,-99.99,,BKN055,-99.99,VWS V14.01,2013-04-18 16:40:00,
2013-04-18 12:43:00,77.7,54.1,30.33,North,356,3.6,6.7,44,-99.99,,BKN055,-99.99,VWS V14.01,2013-04-18 16:43:00,
2013-04-18 12:44:00,77.7,54.1,30.33,North,356,4.5,6.7,44,-99.99,,BKN055,-99.99,VWS V14.01,2013-04-18 16:44:00,
2013-04-18 12:45:00,77.7,54.1,30.33,North,356,6.3,6.9,44,-99.99,,BKN055,-99.99,VWS V14.01,2013-04-18 16:45:00,
2013-04-18 12:46:00,77.4,53.1,30.33,North,0,3.6,6.3,43,-99.99,,BKN055,-99.99,VWS V14.01,2013-04-18 16:46:00,
2013-04-18 12:49:00,77.0,54.7,30.30,North,356,7.8,7.8,46,-99.99,,BKN055,-99.99,VWS V14.01,2013-04-18 16:49:00,
2013-04-18 12:50:00,77.0,55.2,30.30,North,356,6.7,7.8,47,-99.99,,BKN055,-99.99,VWS V14.01,2013-04-18 16:50:00,
2013-04-18 12:51:00,77.4,56.2,30.30,North,356,7.4,7.8,48,-99.99,,BKN055,-99.99,VWS V14.01,2013-04-18 16:51:00,
2013-04-18 12:52:00,77.9,57.2,30.30,North,0,7.8,8.3,49,-99.99,,BKN055,-99.99,VWS V14.01,2013-04-18 16:52:00,
2013-04-18 12:55:00,79.0,54.6,30.30,North,0,4.5,5.8,43,-99.99,,BKN055,-99.99,VWS V14.01,2013-04-18 16:55:00,
2013-04-18 12:56:00,79.2,54.1,30.30,North,0,5.8,5.8,42,-99.99,,BKN055,-99.99,VWS V14.01,2013-04-18 16:56:00,
2013-04-18 12:57:00,79.2,53.5,30.30,North,356,4.9,4.9,41,-99.99,,BKN055,-99.99,VWS V14.01,2013-04-18 16:57:00,
2013-04-18 12:58:00,79.0,53.3,30.30,North,356,6.7,7.4,41,-99.99,,BKN055,-99.99,VWS V14.01,2013-04-18 16:58:00,
2013-04-18 13:01:00,78.3,53.3,30.30,North,356,3.1,7.4,42,-99.99,,SCT060,-99.99,VWS V14.01,2013-04-18 17:01:00,
2013-04-18 13:02:00,78.3,53.3,30.30,North,0,5.8,5.8,42,-99.99,,SCT060,-99.99,VWS V14.01,2013-04-18 17:02:00,
2013-04-18 13:03:00,78.4,53.5,30.30,North,356,4.9,7.8,42,-99.99,,SCT060,-99.99,VWS V14.01,2013-04-18 17:03:00,
2013-04-18 13:04:00,78.6,53.6,30.30,North,356,6.3,7.4,42,-99.99,,SCT060,-99.99,VWS V14.01,2013-04-18 17:04:00,
2013-04-18 13:07:00,79.3,54.3,30.30,North,356,4.9,8.7,42,-99.99,,SCT060,-99.99,VWS V14.01,2013-04-18 17:07:00,
2013-04-18 13:08:00,79.3,53.6,30.30,North,356,4.9,5.4,41,-99.99,,SCT060,-99.99,VWS V14.01,2013-04-18 17:08:00,
2013-04-18 13:09:00,79.3,53.6,30.30,North,356,5.8,6.9,41,-99.99,,SCT060,-99.99,VWS V14.01,2013-04-18 17:09:00,
2013-04-18 13:13:00,78.8,53.1,30.30,North,0,4.9,7.4,41,-99.99,,SCT060,-99.99,VWS V14.01,2013-04-18 17:13:00,
2013-04-18 13:14:00,78.6,53.6,30.30,North,356,4.9,5.4,42,-99.99,,SCT060,-99.99,VWS V14.01,2013-04-18 17:14:00,
2013-04-18 13:15:00,78.4,53.5,30.30,North,356,4.5,6.9,42,-99.99,,SCT060,-99.99,VWS V14.01,2013-04-18 17:15:00,
2013-04-18 13:18:00,78.1,53.8,30.30,North,356,4.9,7.8,43,-99.99,,SCT060,-99.99,VWS V14.01,2013-04-18 17:18:00,
2013-04-18 13:19:00,77.9,53.6,30.30,North,356,6.7,8.7,43,-99.99,,SCT060,-99.99,VWS V14.01,2013-04-18 17:19:00,
2013-04-18 13:20:00,77.7,53.5,30.30,North,0,7.4,7.4,43,-99.99,,SCT060,-99.99,VWS V14.01,2013-04-18 17:20:00,
2013-04-18 13:23:00,77.2,52.3,30.30,North,356,5.4,6.7,42,-99.99,,SCT060,-99.99,VWS V14.01,2013-04-18 17:23:00,
2013-04-18 13:24:00,77.2,53.0,30.30,North,0,6.9,6.9,43,-99.99,,SCT060,-99.99,VWS V14.01,2013-04-18 17:24:00,
2013-04-18 13:25:00,77.0,52.8,30.30,North,0,4.5,5.4,43,-99.99,,SCT060,-99.99,VWS V14.01,2013-04-18 17:25:00,
2013-04-18 13:28:00,77.5,53.9,30.30,North,356,5.4,6.9,44,-99.99,,SCT060,-99.99,VWS V14.01,2013-04-18 17:28:00,
2013-04-18 13:29:00,77.7,54.1,30.30,North,356,6.3,6.3,44,-99.99,,SCT060,-99.99,VWS V14.01,2013-04-18 17:29:00,
2013-04-18 13:32:00,77.9,53.0,30.30,North,0,7.4,8.7,42,-99.99,,SCT060,-99.99,VWS V14.01,2013-04-18 17:32:00,
2013-04-18 13:34:00,78.3,53.3,30.30,North,356,4.5,5.8,42,-99.99,,SCT060,-99.99,VWS V14.01,2013-04-18 17:34:00,
2013-04-18 13:35:00,78.8,54.4,30.30,North,356,4.9,4.9,43,-99.99,,SCT060,-99.99,VWS V14.01,2013-04-18 17:35:00,
2013-04-18 13:36:00,79.0,54.6,30.30,North,356,3.6,4.9,43,-99.99,,SCT060,-99.99,VWS V14.01,2013-04-18 17:36:00,
2013-04-18 13:37:00,79.9,54.8,30.30,North,356,11.2,11.2,42,-99.99,,SCT060,-99.99,VWS V14.01,2013-04-18 17:37:00,
2013-04-18 13:39:00,80.4,53.9,30.30,North,356,9.2,9.6,40,-99.99,,SCT060,-99.99,VWS V14.01,2013-04-18 17:39:00,
2013-04-18 13:41:00,80.8,54.2,30.30,North,0,6.7,10.5,40,-99.99,,SCT060,-99.99,VWS V14.01,2013-04-18 17:41:00,
2013-04-18 13:43:00,81.1,54.5,30.30,North,0,4.5,7.4,40,-99.99,,SCT060,-99.99,VWS V14.01,2013-04-18 17:43:00,
2013-04-18 13:44:00,81.5,55.5,30.30,North,356,4.5,4.9,41,-99.99,,SCT060,-99.99,VWS V14.01,2013-04-18 17:44:00,
2013-04-18 13:45:00,81.9,55.2,30.30,North,356,3.1,4.9,40,-99.99,,SCT060,-99.99,VWS V14.01,2013-04-18 17:45:00,
2013-04-18 13:47:00,82.4,52.8,30.30,North,0,8.7,9.2,36,-99.99,,SCT060,-99.99,VWS V14.01,2013-04-18 17:47:00,
2013-04-18 13:48:00,82.4,52.8,30.30,North,0,5.4,5.4,36,-99.99,,SCT060,-99.99,VWS V14.01,2013-04-18 17:48:00,
2013-04-18 13:49:00,81.9,51.5,30.30,North,356,8.3,13.0,35,-99.99,,SCT060,-99.99,VWS V14.01,2013-04-18 17:49:00,
2013-04-18 13:50:00,81.7,51.4,30.30,North,356,6.7,6.9,35,-99.99,,SCT060,-99.99,VWS V14.01,2013-04-18 17:50:00,
2013-04-18 13:53:00,81.3,52.6,30.30,North,356,6.3,6.9,37,-99.99,,SCT060,-99.99,VWS V14.01,2013-04-18 17:53:00,
2013-04-18 13:54:00,81.7,53.6,30.30,North,0,5.8,6.7,38,-99.99,,SCT060,-99.99,VWS V14.01,2013-04-18 17:54:00,
2013-04-18 13:57:00,82.6,54.4,30.30,North,0,6.3,6.9,38,-99.99,,SCT060,-99.99,VWS V14.01,2013-04-18 17:57:00,
2013-04-18 13:59:00,82.9,53.3,30.30,North,356,3.6,6.7,36,-99.99,,SCT060,-99.99,VWS V14.01,2013-04-18 17:59:00,
2013-04-18 14:00:00,83.3,53.6,30.30,North,356,5.8,6.9,36,-99.99,,SCT060,-99.99,VWS V14.01,2013-04-18 18:00:00,
2013-04-18 14:02:00,83.5,52.2,30.30,North,356,4.5,8.3,34,-99.99,,SCT060,-99.99,VWS V14.01,2013-04-18 18:02:00,
2013-04-18 14:03:00,83.5,51.4,30.30,North,0,7.8,8.3,33,-99.99,,SCT060,-99.99,VWS V14.01,2013-04-18 18:03:00,
2013-04-18 14:04:00,83.3,52.0,30.30,North,356,5.4,8.3,34,-99.99,,SCT060,-99.99,VWS V14.01,2013-04-18 18:04:00,
2013-04-18 14:05:00,83.3,51.2,30.30,North,356,6.3,6.3,33,-99.99,,BKN038,-99.99,VWS V14.01,2013-04-18 18:05:00,
2013-04-18 14:08:00,83.1,50.2,30.30,North,356,6.7,9.2,32,-99.99,,BKN038,-99.99,VWS V14.01,2013-04-18 18:08:00,
2013-04-18 14:09:00,83.3,50.4,30.30,North,356,3.6,8.3,32,-99.99,,BKN038,-99.99,VWS V14.01,2013-04-18 18:09:00,
2013-04-18 14:11:00,83.5,51.4,30.30,North,356,4.5,6.3,33,-99.99,,BKN038,-99.99,VWS V14.01,2013-04-18 18:11:00,
2013-04-18 14:13:00,83.8,51.7,30.30,North,356,10.5,10.5,33,-99.99,,BKN038,-99.99,VWS V14.01,2013-04-18 18:13:00,
2013-04-18 14:14:00,84.0,52.7,30.30,North,0,4.5,4.5,34,-99.99,,BKN038,-99.99,VWS V14.01,2013-04-18 18:14:00,
2013-04-18 14:15:00,84.2,52.8,30.30,North,0,5.4,7.8,34,-99.99,,BKN038,-99.99,VWS V14.01,2013-04-18 18:15:00,
2013-04-18 14:17:00,84.0,51.0,30.30,North,0,4.0,6.7,32,-99.99,,BKN038,-99.99,VWS V14.01,2013-04-18 18:17:00,
2013-04-18 14:18:00,82.9,50.1,30.27,North,356,5.8,5.8,32,-99.99,,BKN038,-99.99,VWS V14.01,2013-04-18 18:18:00,
2013-04-18 14:19:00,82.4,49.6,30.27,North,356,4.0,4.5,32,-99.99,,BKN038,-99.99,VWS V14.01,2013-04-18 18:19:00,
2013-04-18 14:20:00,81.9,50.0,30.27,North,356,8.3,8.3,33,-99.99,,BKN038,-99.99,VWS V14.01,2013-04-18 18:20:00,
2013-04-18 14:22:00,81.3,51.1,30.27,North,356,9.2,9.2,35,-99.99,,BKN038,-99.99,VWS V14.01,2013-04-18 18:22:00,
2013-04-18 14:24:00,80.6,52.0,30.27,North,356,3.1,3.1,37,-99.99,,BKN038,-99.99,VWS V14.01,2013-04-18 18:24:00,
2013-04-18 14:25:00,80.6,52.7,30.27,North,0,4.0,8.3,38,-99.99,,BKN038,-99.99,VWS V14.01,2013-04-18 18:25:00,
2013-04-18 14:27:00,80.4,53.2,30.27,North,356,12.1,12.1,39,-99.99,,BKN038,-99.99,VWS V14.01,2013-04-18 18:27:00,
2013-04-18 14:30:00,80.1,52.9,30.27,North,0,5.4,9.2,39,-99.99,,BKN038,-99.99,VWS V14.01,2013-04-18 18:30:00,
2013-04-18 14:31:00,80.2,53.8,30.27,North,356,5.8,6.7,40,-99.99,,BKN038,-99.99,VWS V14.01,2013-04-18 18:31:00,
2013-04-18 14:33:00,80.1,52.9,30.27,North,0,7.4,8.3,39,-99.99,,BKN038,-99.99,VWS V14.01,2013-04-18 18:33:00,
2013-04-18 14:34:00,80.1,53.6,30.27,North,356,5.8,5.8,40,-99.99,,BKN038,-99.99,VWS V14.01,2013-04-18 18:34:00,
2013-04-18 14:36:00,80.1,53.6,30.27,North,356,4.9,4.9,40,-99.99,,BKN038,-99.99,VWS V14.01,2013-04-18 18:36:00,
2013-04-18 14:37:00,80.1,53.6,30.27,North,356,0.0,4.0,40,-99.99,,BKN038,-99.99,VWS V14.01,2013-04-18 18:37:00,
2013-04-18 14:39:00,79.9,53.4,30.27,North,356,3.6,4.9,40,-99.99,,BKN038,-99.99,VWS V14.01,2013-04-18 18:39:00,
2013-04-18 14:41:00,79.2,53.5,30.27,North,356,6.7,6.7,41,-99.99,,BKN038,-99.99,VWS V14.01,2013-04-18 18:41:00,
2013-04-18 14:42:00,79.2,53.5,30.27,North,0,3.1,6.7,41,-99.99,,BKN038,-99.99,VWS V14.01,2013-04-18 18:42:00,
2013-04-18 14:44:00,79.0,54.0,30.27,North,356,4.5,4.5,42,-99.99,,BKN038,-99.99,VWS V14.01,2013-04-18 18:44:00,
2013-04-18 14:46:00,79.7,56.5,30.27,North,0,4.0,6.7,45,-99.99,,BKN038,-99.99,VWS V14.01,2013-04-18 18:46:00,
2013-04-18 14:47:00,79.9,55.4,30.27,North,356,4.5,7.8,43,-99.99,,BKN038,-99.99,VWS V14.01,2013-04-18 18:47:00,
2013-04-18 14:48:00,80.2,55.1,30.27,North,356,2.7,4.5,42,-99.99,,BKN038,-99.99,VWS V14.01,2013-04-18 18:48:00,
2013-04-18 14:50:00,79.9,53.4,30.27,North,0,6.9,6.9,40,-99.99,,BKN038,-99.99,VWS V14.01,2013-04-18 18:50:00,
2013-04-18 14:52:00,79.5,53.8,30.27,North,0,4.5,6.3,41,-99.99,,BKN038,-99.99,VWS V14.01,2013-04-18 18:52:00,
2013-04-18 14:53:00,79.2,53.5,30.27,North,356,6.7,6.9,41,-99.99,,BKN038,-99.99,VWS V14.01,2013-04-18 18:53:00,
2013-04-18 14:55:00,78.8,53.1,30.27,North,356,6.9,6.9,41,-99.99,,BKN038,-99.99,VWS V14.01,2013-04-18 18:55:00,
2013-04-18 14:57:00,78.3,53.3,30.27,North,0,4.5,4.9,42,-99.99,,BKN038,-99.99,VWS V14.01,2013-04-18 18:57:00,
2013-04-18 14:58:00,78.3,53.3,30.27,North,356,5.4,6.3,42,-99.99,,BKN070,-99.99,VWS V14.01,2013-04-18 18:58:00,
2013-04-18 15:01:00,78.4,54.7,30.27,North,356,6.7,6.9,44,-99.99,,BKN070,-99.99,VWS V14.01,2013-04-18 19:01:00,
2013-04-18 15:03:00,79.0,55.2,30.27,North,356,4.0,4.9,44,-99.99,,BKN070,-99.99,VWS V14.01,2013-04-18 19:03:00,
2013-04-18 15:04:00,79.3,55.6,30.27,North,356,4.9,6.3,44,-99.99,,BKN070,-99.99,VWS V14.01,2013-04-18 19:04:00,
2013-04-18 15:07:00,79.9,53.4,30.27,North,356,5.8,5.8,40,-99.99,,BKN070,-99.99,VWS V14.01,2013-04-18 19:07:00,
2013-04-18 15:08:00,79.9,54.1,30.27,North,356,4.0,5.8,41,-99.99,,BKN070,-99.99,VWS V14.01,2013-04-18 19:08:00,
2013-04-18 15:09:00,79.9,54.1,30.27,North,356,3.1,5.8,41,-99.99,,BKN070,-99.99,VWS V14.01,2013-04-18 19:09:00,
2013-04-18 15:10:00,79.9,54.1,30.27,North,356,4.9,5.8,41,-99.99,,BKN070,-99.99,VWS V14.01,2013-04-18 19:10:00,
2013-04-18 15:13:00,80.4,55.9,30.27,North,356,4.9,5.8,43,-99.99,,BKN070,-99.99,VWS V14.01,2013-04-18 19:13:00,
2013-04-18 15:14:00,80.4,54.6,30.27,North,0,4.5,5.8,41,-99.99,,BKN070,-99.99,VWS V14.01,2013-04-18 19:14:00,
2013-04-18 15:16:00,80.4,53.9,30.27,North,356,5.8,10.5,40,-99.99,,BKN070,-99.99,VWS V14.01,2013-04-18 19:16:00,
2013-04-18 15:17:00,80.4,53.9,30.27,North,356,6.3,8.3,40,-99.99,,BKN070,-99.99,VWS V14.01,2013-04-18 19:17:00,
2013-04-18 15:19:00,80.4,54.6,30.27,North,0,4.0,6.3,41,-99.99,,BKN070,-99.99,VWS V14.01,2013-04-18 19:19:00,
2013-04-18 15:20:00,80.4,53.9,30.27,North,356,4.9,6.7,40,-99.99,,BKN070,-99.99,VWS V14.01,2013-04-18 19:20:00,
2013-04-18 15:21:00,80.2,53.8,30.27,North,356,3.6,4.5,40,-99.99,,BKN070,-99.99,VWS V14.01,2013-04-18 19:21:00,
2013-04-18 15:22:00,80.2,54.4,30.27,North,356,0.0,4.5,41,-99.99,,BKN070,-99.99,VWS V14.01,2013-04-18 19:22:00,
2013-04-18 15:24:00,79.9,54.1,30.27,North,356,3.6,3.6,41,-99.99,,BKN070,-99.99,VWS V14.01,2013-04-18 19:24:00,
2013-04-18 15:25:00,79.7,53.9,30.27,North,356,2.7,3.6,41,-99.99,,BKN070,-99.99,VWS V14.01,2013-04-18 19:25:00,
2013-04-18 15:26:00,79.5,53.8,30.27,North,356,6.3,6.3,41,-99.99,,BKN070,-99.99,VWS V14.01,2013-04-18 19:26:00,
2013-04-18 15:28:00,79.3,54.3,30.27,North,356,5.4,5.8,42,-99.99,,BKN070,-99.99,VWS V14.01,2013-04-18 19:28:00,
2013-04-18 15:31:00,79.5,54.4,30.27,North,356,0.0,4.9,42,-99.99,,BKN070,-99.99,VWS V14.01,2013-04-18 19:31:00,
2013-04-18 15:32:00,79.7,55.2,30.27,North,356,4.5,5.4,43,-99.99,,BKN070,-99.99,VWS V14.01,2013-04-18 19:32:00,
2013-04-18 15:33:00,79.7,54.6,30.24,North,356,4.5,4.5,42,-99.99,,BKN070,-99.99,VWS V14.01,2013-04-18 19:33:00,
2013-04-18 15:36:00,79.5,53.1,30.24,North,0,2.7,6.7,40,-99.99,,BKN070,-99.99,VWS V14.01,2013-04-18 19:36:00,
2013-04-18 15:37:00,79.3,53.0,30.24,North,356,0.0,3.6,40,-99.99,,BKN070,-99.99,VWS V14.01,2013-04-18 19:37:00,
2013-04-18 15:38:00,79.3,53.6,30.24,North,356,5.4,5.4,41,-99.99,,BKN070,-99.99,VWS V14.01,2013-04-18 19:38:00,
2013-04-18 15:39:00,79.3,53.6,30.24,North,356,3.6,5.4,41,-99.99,,BKN070,-99.99,VWS V14.01,2013-04-18 19:39:00,
2013-04-18 15:40:00,79.3,53.6,30.24,North,356,5.4,6.7,41,-99.99,,BKN070,-99.99,VWS V14.01,2013-04-18 19:40:00,
2013-04-18 15:41:00,79.5,53.8,30.24,North,356,8.3,8.3,41,-99.99,,BKN070,-99.99,VWS V14.01,2013-04-18 19:41:00,
2013-04-18 15:42:00,79.2,52.8,30.24,North,356,5.4,9.6,40,-99.99,,BKN070,-99.99,VWS V14.01,2013-04-18 19:42:00,
2013-04-18 15:44:00,79.0,53.3,30.24,North,356,8.7,8.7,41,-99.99,,BKN070,-99.99,VWS V14.01,2013-04-18 19:44:00,
2013-04-18 15:45:00,79.0,53.3,30.24,North,356,5.8,5.8,41,-99.99,,BKN070,-99.99,VWS V14.01,2013-04-18 19:45:00,
2013-04-18 15:46:00,79.0,53.3,30.24,North,356,4.9,6.3,41,-99.99,,BKN070,-99.99,VWS V14.01,2013-04-18 19:46:00,
2013-04-18 15:47:00,79.2,53.5,30.24,North,356,3.1,4.9,41,-99.99,,BKN070,-99.99,VWS V14.01,2013-04-18 19:47:00,
2013-04-18 15:49:00,79.7,54.6,30.24,North,0,4.5,4.5,42,-99.99,,BKN070,-99.99,VWS V14.01,2013-04-18 19:49:00,
2013-04-18 15:50:00,79.9,54.8,30.24,North,0,4.9,6.3,42,-99.99,,BKN070,-99.99,VWS V14.01,2013-04-18 19:50:00,
2013-04-18 15:51:00,80.1,54.3,30.24,North,356,3.1,6.7,41,-99.99,,BKN070,-99.99,VWS V14.01,2013-04-18 19:51:00,
2013-04-18 15:52:00,80.2,53.8,30.24,North,0,4.5,9.6,40,-99.99,,BKN070,-99.99,VWS V14.01,2013-04-18 19:52:00,
2013-04-18 15:54:00,80.4,52.5,30.24,North,356,4.0,6.7,38,-99.99,,BKN070,-99.99,VWS V14.01,2013-04-18 19:54:00,
2013-04-18 15:55:00,80.4,51.8,30.24,North,356,4.9,4.9,37,-99.99,,BKN070,-99.99,VWS V14.01,2013-04-18 19:55:00,
2013-04-18 15:57:00,80.2,52.3,30.24,North,356,6.9,8.3,38,-99.99,,BKN070,-99.99,VWS V14.01,2013-04-18 19:57:00,
2013-04-18 15:58:00,80.2,51.6,30.24,North,356,5.4,7.8,37,-99.99,,BKN070,-99.99,VWS V14.01,2013-04-18 19:58:00,
2013-04-18 15:59:00,80.1,51.5,30.24,North,356,3.6,3.6,37,-99.99,,BKN070,-99.99,VWS V14.01,2013-04-18 19:59:00,
2013-04-18 16:00:00,79.9,51.3,30.24,North,356,6.3,6.3,37,-99.99,,BKN070,-99.99,VWS V14.01,2013-04-18 20:00:00,
2013-04-18 16:01:00,79.5,50.2,30.24,North,356,6.9,7.8,36,-99.99,,BKN070,-99.99,VWS V14.01,2013-04-18 20:01:00,
2013-04-18 16:03:00,79.5,50.2,30.24,North,356,10.1,10.1,36,-99.99,,BKN075,-99.99,VWS V14.01,2013-04-18 20:03:00,
2013-04-18 16:05:00,79.3,50.1,30.24,North,356,5.4,5.8,36,-99.99,,BKN075,-99.99,VWS V14.01,2013-04-18 20:05:00,
2013-04-18 16:06:00,79.3,50.1,30.24,North,356,0.0,8.7,36,-99.99,,BKN075,-99.99,VWS V14.01,2013-04-18 20:06:00,
2013-04-18 16:07:00,79.3,50.8,30.24,North,356,6.9,6.9,37,-99.99,,BKN075,-99.99,VWS V14.01,2013-04-18 20:07:00,
2013-04-18 16:09:00,79.3,50.8,30.24,North,356,5.4,6.7,37,-99.99,,BKN075,-99.99,VWS V14.01,2013-04-18 20:09:00,
2013-04-18 16:10:00,79.2,51.4,30.24,North,356,4.5,4.5,38,-99.99,,BKN075,-99.99,VWS V14.01,2013-04-18 20:10:00,
2013-04-18 16:11:00,79.2,51.4,30.24,North,356,4.0,4.5,38,-99.99,,BKN075,-99.99,VWS V14.01,2013-04-18 20:11:00,
2013-04-18 16:12:00,79.2,51.4,30.24,North,356,4.9,5.4,38,-99.99,,BKN075,-99.99,VWS V14.01,2013-04-18 20:12:00,
2013-04-18 16:14:00,79.0,51.9,30.24,North,356,4.5,5.4,39,-99.99,,BKN075,-99.99,VWS V14.01,2013-04-18 20:14:00,
2013-04-18 16:15:00,79.0,51.2,30.24,North,0,5.8,6.9,38,-99.99,,BKN075,-99.99,VWS V14.01,2013-04-18 20:15:00,
2013-04-18 16:17:00,79.0,51.9,30.24,North,356,6.7,7.8,39,-99.99,,BKN075,-99.99,VWS V14.01,2013-04-18 20:17:00,
2013-04-18 16:18:00,79.0,51.2,30.24,North,356,4.0,7.8,38,-99.99,,BKN075,-99.99,VWS V14.01,2013-04-18 20:18:00,
2013-04-18 16:20:00,79.2,52.8,30.24,North,356,6.7,8.3,40,-99.99,,BKN075,-99.99,VWS V14.01,2013-04-18 20:20:00,
2013-04-18 16:23:00,79.2,51.4,30.24,North,356,4.0,9.6,38,-99.99,,BKN075,-99.99,VWS V14.01,2013-04-18 20:23:00,
2013-04-18 16:24:00,79.2,51.4,30.24,North,356,4.9,9.6,38,-99.99,,BKN075,-99.99,VWS V14.01,2013-04-18 20:24:00,
2013-04-18 16:25:00,79.0,51.9,30.24,North,356,7.4,7.4,39,-99.99,,BKN075,-99.99,VWS V14.01,2013-04-18 20:25:00,
2013-04-18 16:26:00,79.0,50.5,30.24,North,356,4.9,7.4,37,-99.99,,BKN075,-99.99,VWS V14.01,2013-04-18 20:26:00,
2013-04-18 16:29:00,78.6,49.5,30.24,North,0,5.4,5.8,36,-99.99,,BKN075,-99.99,VWS V14.01,2013-04-18 20:29:00,
2013-04-18 16:30:00,78.6,50.2,30.24,North,356,4.5,5.4,37,-99.99,,BKN075,-99.99,VWS V14.01,2013-04-18 20:30:00,
2013-04-18 16:31:00,78.6,50.2,30.24,North,0,4.9,4.9,37,-99.99,,BKN075,-99.99,VWS V14.01,2013-04-18 20:31:00,
2013-04-18 16:34:00,78.6,50.9,30.24,North,356,5.8,6.3,38,-99.99,,BKN075,-99.99,VWS V14.01,2013-04-18 20:34:00,
2013-04-18 16:35:00,78.8,51.1,30.24,North,356,11.6,13.0,38,-99.99,,BKN075,-99.99,VWS V14.01,2013-04-18 20:35:00,
2013-04-18 16:36:00,78.8,51.1,30.24,North,356,8.3,11.2,38,-99.99,,BKN075,-99.99,VWS V14.01,2013-04-18 20:36:00,
2013-04-18 16:37:00,78.8,50.4,30.24,North,356,8.7,11.2,37,-99.99,,BKN075,-99.99,VWS V14.01,2013-04-18 20:37:00,
2013-04-18 16:38:00,78.6,49.5,30.24,North,356,8.3,11.6,36,-99.99,,BKN075,-99.99,VWS V14.01,2013-04-18 20:38:00,
2013-04-18 16:39:00,78.3,49.9,30.24,North,356,5.4,10.5,37,-99.99,,BKN075,-99.99,VWS V14.01,2013-04-18 20:39:00,
2013-04-18 16:40:00,78.1,49.7,30.24,North,0,6.9,8.7,37,-99.99,,BKN075,-99.99,VWS V14.01,2013-04-18 20:40:00,
2013-04-18 16:42:00,77.7,50.1,30.24,North,356,4.9,8.3,38,-99.99,,BKN075,-99.99,VWS V14.01,2013-04-18 20:42:00,
2013-04-18 16:43:00,77.5,50.7,30.24,North,356,7.8,7.8,39,-99.99,,BKN075,-99.99,VWS V14.01,2013-04-18 20:43:00,
2013-04-18 16:44:00,77.5,50.7,30.24,North,356,7.4,8.7,39,-99.99,,BKN075,-99.99,VWS V14.01,2013-04-18 20:44:00,
2013-04-18 16:46:00,77.7,50.8,30.24,North,356,4.9,6.7,39,-99.99,,BKN075,-99.99,VWS V14.01,2013-04-18 20:46:00,
2013-04-18 16:47:00,77.9,51.0,30.24,North,356,6.3,6.9,39,-99.99,,BKN075,-99.99,VWS V14.01,2013-04-18 20:47:00,
2013-04-18 16:48:00,77.9,51.0,30.21,North,356,6.7,7.8,39,-99.99,,BKN075,-99.99,VWS V14.01,2013-04-18 20:48:00,
2013-04-18 16:49:00,77.9,50.3,30.21,North,356,13.0,13.9,38,-99.99,,BKN075,-99.99,VWS V14.01,2013-04-18 20:49:00,
2013-04-18 16:50:00,78.1,51.1,30.21,North,0,6.3,6.7,39,-99.99,,BKN075,-99.99,VWS V14.01,2013-04-18 20:50:00,
2013-04-18 16:52:00,78.3,50.6,30.21,North,356,6.9,7.4,38,-99.99,,BKN075,-99.99,VWS V14.01,2013-04-18 20:52:00,
2013-04-18 16:54:00,78.3,51.3,30.21,North,356,4.0,5.8,39,-99.99,,BKN075,-99.99,VWS V14.01,2013-04-18 20:54:00,
2013-04-18 16:55:00,78.4,51.5,30.21,North,356,5.4,7.8,39,-99.99,,BKN075,-99.99,VWS V14.01,2013-04-18 20:55:00,
2013-04-18 16:57:00,78.4,50.8,30.21,North,356,4.0,5.8,38,-99.99,,BKN075,-99.99,VWS V14.01,2013-04-18 20:57:00,
2013-04-18 16:59:00,78.4,50.0,30.21,North,356,4.9,12.5,37,-99.99,,CLR,-99.99,VWS V14.01,2013-04-18 20:59:00,
2013-04-18 17:00:00,78.4,50.0,30.21,North,356,4.9,4.9,37,-99.99,,CLR,-99.99,VWS V14.01,2013-04-18 21:00:00,
2013-04-18 17:01:00,78.4,50.0,30.21,North,356,6.9,7.4,37,-99.99,,CLR,-99.99,VWS V14.01,2013-04-18 21:01:00,
2013-04-18 17:02:00,78.4,50.8,30.21,North,356,6.7,7.4,38,-99.99,,CLR,-99.99,VWS V14.01,2013-04-18 21:02:00,
2013-04-18 17:04:00,78.3,50.6,30.21,North,0,6.7,9.2,38,-99.99,,CLR,-99.99,VWS V14.01,2013-04-18 21:04:00,
2013-04-18 17:05:00,78.3,51.3,30.21,North,356,6.9,6.9,39,-99.99,,CLR,-99.99,VWS V14.01,2013-04-18 21:05:00,
2013-04-18 17:06:00,78.3,50.6,30.21,North,356,6.3,6.9,38,-99.99,,CLR,-99.99,VWS V14.01,2013-04-18 21:06:00,
2013-04-18 17:07:00,78.3,50.6,30.21,North,356,6.7,8.7,38,-99.99,,CLR,-99.99,VWS V14.01,2013-04-18 21:07:00,
2013-04-18 17:08:00,78.3,50.6,30.21,North,356,6.3,8.7,38,-99.99,,CLR,-99.99,VWS V14.01,2013-04-18 21:08:00,
2013-04-18 17:10:00,78.1,50.4,30.21,North,356,5.4,7.8,38,-99.99,,CLR,-99.99,VWS V14.01,2013-04-18 21:10:00,
2013-04-18 17:11:00,78.1,50.4,30.21,North,356,7.4,16.8,38,-99.99,,CLR,-99.99,VWS V14.01,2013-04-18 21:11:00,
2013-04-18 17:13:00,78.1,51.1,30.21,North,356,6.3,11.0,39,-99.99,,CLR,-99.99,VWS V14.01,2013-04-18 21:13:00,
2013-04-18 17:14:00,78.1,50.4,30.21,North,356,3.1,5.4,38,-99.99,,CLR,-99.99,VWS V14.01,2013-04-18 21:14:00,
2013-04-18 17:16:00,78.1,50.4,30.21,North,0,5.4,7.4,38,-99.99,,CLR,-99.99,VWS V14.01,2013-04-18 21:16:00,
2013-04-18 17:18:00,77.9,49.6,30.21,North,356,9.2,10.1,37,-99.99,,CLR,-99.99,VWS V14.01,2013-04-18 21:18:00,
2013-04-18 17:19:00,77.9,50.3,30.21,North,356,7.8,7.8,38,-99.99,,CLR,-99.99,VWS V14.01,2013-04-18 21:19:00,
2013-04-18 17:21:00,77.7,48.7,30.21,North,0,4.9,6.7,36,-99.99,,CLR,-99.99,VWS V14.01,2013-04-18 21:21:00,
2013-04-18 17:23:00,77.7,50.1,30.21,North,356,4.9,5.8,38,-99.99,,CLR,-99.99,VWS V14.01,2013-04-18 21:23:00,
2013-04-18 17:24:00,77.7,50.1,30.21,North,356,5.4,6.3,38,-99.99,,CLR,-99.99,VWS V14.01,2013-04-18 21:24:00,
2013-04-18 17:25:00,77.5,50.0,30.21,North,356,4.9,6.9,38,-99.99,,CLR,-99.99,VWS V14.01,2013-04-18 21:25:00,
2013-04-18 17:28:00,77.5,49.2,30.21,North,0,6.3,6.9,37,-99.99,,CLR,-99.99,VWS V14.01,2013-04-18 21:28:00,
2013-04-18 17:29:00,77.5,49.2,30.21,North,356,8.7,8.7,37,-99.99,,CLR,-99.99,VWS V14.01,2013-04-18 21:29:00,
2013-04-18 17:32:00,77.4,48.3,30.21,North,356,5.8,6.7,36,-99.99,,CLR,-99.99,VWS V14.01,2013-04-18 21:32:00,
2013-04-18 17:34:00,77.4,49.1,30.21,North,356,8.7,11.2,37,-99.99,,CLR,-99.99,VWS V14.01,2013-04-18 21:34:00,
2013-04-18 17:35:00,77.4,48.3,30.21,North,0,8.3,8.3,36,-99.99,,CLR,-99.99,VWS V14.01,2013-04-18 21:35:00,
2013-04-18 17:39:00,77.4,48.3,30.21,North,0,12.5,12.5,36,-99.99,,CLR,-99.99,VWS V14.01,2013-04-18 21:39:00,
2013-04-18 17:40:00,77.4,48.3,30.21,North,356,4.5,5.4,36,-99.99,,CLR,-99.99,VWS V14.01,2013-04-18 21:40:00,
2013-04-18 17:41:00,77.2,48.9,30.21,North,356,6.7,9.2,37,-99.99,,CLR,-99.99,VWS V14.01,2013-04-18 21:41:00,
2013-04-18 17:44:00,77.2,48.9,30.21,North,356,6.3,6.3,37,-99.99,,CLR,-99.99,VWS V14.01,2013-04-18 21:44:00,
2013-04-18 17:45:00,77.2,48.9,30.21,North,356,5.4,6.7,37,-99.99,,CLR,-99.99,VWS V14.01,2013-04-18 21:45:00,
2013-04-18 17:46:00,77.2,48.9,30.21,North,356,4.9,7.4,37,-99.99,,CLR,-99.99,VWS V14.01,2013-04-18 21:46:00,
2013-04-18 17:47:00,77.2,48.9,30.21,North,356,4.9,5.8,37,-99.99,,CLR,-99.99,VWS V14.01,2013-04-18 21:47:00,
2013-04-18 17:50:00,77.0,49.5,30.21,North,356,10.1,11.6,38,-99.99,,CLR,-99.99,VWS V14.01,2013-04-18 21:50:00,
2013-04-18 17:51:00,77.0,49.5,30.21,North,0,9.2,11.6,38,-99.99,,CLR,-99.99,VWS V14.01,2013-04-18 21:51:00,
2013-04-18 17:52:00,77.0,49.5,30.21,North,356,7.4,7.4,38,-99.99,,CLR,-99.99,VWS V14.01,2013-04-18 21:52:00,
2013-04-18 17:56:00,76.8,49.3,30.21,North,356,7.8,9.2,38,-99.99,,CLR,-99.99,VWS V14.01,2013-04-18 21:56:00,
2013-04-18 17:57:00,76.8,49.3,30.21,North,356,3.1,4.0,38,-99.99,,CLR,-99.99,VWS V14.01,2013-04-18 21:57:00,
2013-04-18 17:58:00,76.8,49.3,30.21,North,356,6.7,6.9,38,-99.99,,CLR,-99.99,VWS V14.01,2013-04-18 21:58:00,
2013-04-18 18:01:00,76.6,49.2,30.21,North,356,4.9,8.3,38,-99.99,,CLR,-99.99,VWS V14.01,2013-04-18 22:01:00,
2013-04-18 18:02:00,76.6,49.2,30.21,North,0,5.8,7.4,38,-99.99,,CLR,-99.99,VWS V14.01,2013-04-18 22:02:00,
2013-04-18 18:03:00,76.6,49.2,30.21,North,356,4.5,5.4,38,-99.99,,CLR,-99.99,VWS V14.01,2013-04-18 22:03:00,
2013-04-18 18:04:00,76.6,48.4,30.21,North,356,4.5,4.5,37,-99.99,,CLR,-99.99,VWS V14.01,2013-04-18 22:04:00,
2013-04-18 18:06:00,76.5,48.3,30.21,North,356,5.4,5.8,37,-99.99,,CLR,-99.99,VWS V14.01,2013-04-18 22:06:00,
2013-04-18 18:08:00,76.5,49.0,30.21,North,356,3.6,6.3,38,-99.99,,CLR,-99.99,VWS V14.01,2013-04-18 22:08:00,
2013-04-18 18:09:00,76.3,48.8,30.21,North,356,7.4,7.4,38,-99.99,,CLR,-99.99,VWS V14.01,2013-04-18 22:09:00,
2013-04-18 18:11:00,76.3,48.8,30.21,North,356,7.4,7.8,38,-99.99,,CLR,-99.99,VWS V14.01,2013-04-18 22:11:00,
2013-04-18 18:13:00,76.3,48.8,30.21,North,0,8.7,8.7,38,-99.99,,CLR,-99.99,VWS V14.01,2013-04-18 22:13:00,
2013-04-18 18:14:00,76.3,48.8,30.21,North,356,4.0,4.5,38,-99.99,,CLR,-99.99,VWS V14.01,2013-04-18 22:14:00,
2013-04-18 18:15:00,76.3,48.8,30.21,North,0,5.4,6.9,38,-99.99,,CLR,-99.99,VWS V14.01,2013-04-18 22:15:00,
2013-04-18 18:16:00,76.1,48.7,30.21,North,356,6.3,9.6,38,-99.99,,CLR,-99.99,VWS V14.01,2013-04-18 22:16:00,
2013-04-18 18:19:00,75.9,49.2,30.21,North,356,6.9,8.7,39,-99.99,,CLR,-99.99,VWS V14.01,2013-04-18 22:19:00,
2013-04-18 18:21:00,75.9,49.2,30.21,North,356,6.9,9.2,39,-99.99,,CLR,-99.99,VWS V14.01,2013-04-18 22:21:00,
2013-04-18 18:22:00,75.9,48.5,30.21,North,356,5.8,8.3,38,-99.99,,CLR,-99.99,VWS V14.01,2013-04-18 22:22:00,
2013-04-18 18:25:00,75.9,49.2,30.21,North,356,6.7,6.9,39,-99.99,,CLR,-99.99,VWS V14.01,2013-04-18 22:25:00,
2013-04-18 18:26:00,75.7,49.7,30.21,North,356,3.1,6.7,40,-99.99,,CLR,-99.99,VWS V14.01,2013-04-18 22:26:00,
2013-04-18 18:27:00,75.7,49.7,30.21,North,356,3.6,5.8,40,-99.99,,CLR,-99.99,VWS V14.01,2013-04-18 22:27:00,
2013-04-18 18:28:00,75.7,49.7,30.21,North,356,4.5,5.4,40,-99.99,,CLR,-99.99,VWS V14.01,2013-04-18 22:28:00,
2013-04-18 18:31:00,75.7,49.7,30.21,North,356,5.4,5.4,40,-99.99,,CLR,-99.99,VWS V14.01,2013-04-18 22:31:00,
2013-04-18 18:32:00,75.7,49.7,30.21,North,356,5.4,5.8,40,-99.99,,CLR,-99.99,VWS V14.01,2013-04-18 22:32:00,
2013-04-18 18:35:00,75.6,49.6,30.21,North,356,4.9,9.2,40,-99.99,,CLR,-99.99,VWS V14.01,2013-04-18 22:35:00,
2013-04-18 18:36:00,75.6,48.2,30.21,North,356,7.4,7.4,38,-99.99,,CLR,-99.99,VWS V14.01,2013-04-18 22:36:00,
2013-04-18 18:38:00,75.4,48.0,30.21,North,356,7.4,8.3,38,-99.99,,CLR,-99.99,VWS V14.01,2013-04-18 22:38:00,
2013-04-18 18:39:00,75.4,48.0,30.21,North,356,8.7,8.7,38,-99.99,,CLR,-99.99,VWS V14.01,2013-04-18 22:39:00,
2013-04-18 18:41:00,75.2,47.9,30.21,North,356,4.5,6.9,38,-99.99,,CLR,-99.99,VWS V14.01,2013-04-18 22:41:00,
2013-04-18 18:43:00,75.0,47.7,30.21,North,356,4.0,9.6,38,-99.99,,CLR,-99.99,VWS V14.01,2013-04-18 22:43:00,
2013-04-18 18:44:00,75.0,48.4,30.21,North,0,6.3,6.3,39,-99.99,,CLR,-99.99,VWS V14.01,2013-04-18 22:44:00,
2013-04-18 18:45:00,75.0,48.4,30.21,North,356,4.9,6.7,39,-99.99,,CLR,-99.99,VWS V14.01,2013-04-18 22:45:00,
2013-04-18 18:47:00,74.8,48.9,30.21,North,356,7.4,9.6,40,-99.99,,CLR,-99.99,VWS V14.01,2013-04-18 22:47:00,
2013-04-18 18:48:00,74.8,48.2,30.21,North,356,6.7,6.9,39,-99.99,,CLR,-99.99,VWS V14.01,2013-04-18 22:48:00,
2013-04-18 18:49:00,74.8,48.2,30.21,North,356,4.9,6.9,39,-99.99,,CLR,-99.99,VWS V14.01,2013-04-18 22:49:00,
2013-04-18 18:52:00,74.7,48.8,30.21,North,0,5.4,5.4,40,-99.99,,CLR,-99.99,VWS V14.01,2013-04-18 22:52:00,
2013-04-18 18:53:00,74.7,49.4,30.21,North,0,5.4,7.8,41,-99.99,,CLR,-99.99,VWS V14.01,2013-04-18 22:53:00,
2013-04-18 18:54:00,74.5,49.3,30.21,North,0,6.3,6.7,41,-99.99,,CLR,-99.99,VWS V14.01,2013-04-18 22:54:00,
2013-04-18 18:55:00,74.5,49.3,30.21,North,356,7.4,9.2,41,-99.99,,CLR,-99.99,VWS V14.01,2013-04-18 22:55:00,
2013-04-18 18:57:00,74.5,49.3,30.21,North,356,5.8,5.8,41,-99.99,,CLR,-99.99,VWS V14.01,2013-04-18 22:57:00,
2013-04-18 18:58:00,74.5,49.3,30.21,North,356,4.5,4.9,41,-99.99,,CLR,-99.99,VWS V14.01,2013-04-18 22:58:00,
2013-04-18 18:59:00,74.3,49.1,30.21,North,356,6.7,6.9,41,-99.99,,CLR,-99.99,VWS V14.01,2013-04-18 22:59:00,
2013-04-18 19:00:00,74.3,49.1,30.21,North,356,4.5,6.7,41,-99.99,,CLR,-99.99,VWS V14.01,2013-04-18 23:00:00,
2013-04-18 19:02:00,74.3,49.8,30.21,North,356,6.3,7.4,42,-99.99,,CLR,-99.99,VWS V14.01,2013-04-18 23:02:00,
2013-04-18 19:03:00,74.3,49.8,30.21,North,356,3.1,5.4,42,-99.99,,CLR,-99.99,VWS V14.01,2013-04-18 23:03:00,
2013-04-18 19:04:00,74.3,49.8,30.21,North,356,3.1,5.4,42,-99.99,,CLR,-99.99,VWS V14.01,2013-04-18 23:04:00,
2013-04-18 19:05:00,74.1,49.6,30.21,North,356,4.0,5.8,42,-99.99,,CLR,-99.99,VWS V14.01,2013-04-18 23:05:00,
2013-04-18 19:07:00,74.1,49.6,30.21,North,356,5.4,6.7,42,-99.99,,CLR,-99.99,VWS V14.01,2013-04-18 23:07:00,
2013-04-18 19:09:00,73.9,50.1,30.21,North,356,4.0,5.4,43,-99.99,,CLR,-99.99,VWS V14.01,2013-04-18 23:09:00,
2013-04-18 19:10:00,73.9,50.1,30.21,North,356,5.8,6.3,43,-99.99,,CLR,-99.99,VWS V14.01,2013-04-18 23:10:00,
2013-04-18 19:12:00,73.8,49.9,30.21,North,356,5.4,8.3,43,-99.99,,CLR,-99.99,VWS V14.01,2013-04-18 23:12:00,
2013-04-18 19:14:00,73.6,50.3,30.21,North,356,6.3,6.7,44,-99.99,,CLR,-99.99,VWS V14.01,2013-04-18 23:14:00,
2013-04-18 19:15:00,73.6,50.3,30.21,North,356,4.5,5.8,44,-99.99,,CLR,-99.99,VWS V14.01,2013-04-18 23:15:00,
2013-04-18 19:17:00,73.6,50.3,30.21,North,0,6.3,9.2,44,-99.99,,CLR,-99.99,VWS V14.01,2013-04-18 23:17:00,
2013-04-18 19:20:00,73.4,50.8,30.21,North,0,5.8,10.5,45,-99.99,,CLR,-99.99,VWS V14.01,2013-04-18 23:20:00,
2013-04-18 19:22:00,73.4,51.4,30.21,North,0,4.5,6.3,46,-99.99,,CLR,-99.99,VWS V14.01,2013-04-18 23:22:00,
2013-04-18 19:23:00,73.4,51.4,30.21,North,0,2.7,5.8,46,-99.99,,CLR,-99.99,VWS V14.01,2013-04-18 23:23:00,
2013-04-18 19:25:00,73.2,51.2,30.21,North,356,3.1,6.3,46,-99.99,,CLR,-99.99,VWS V14.01,2013-04-18 23:25:00,
2013-04-18 19:26:00,73.2,51.8,30.21,North,356,7.8,8.3,47,-99.99,,CLR,-99.99,VWS V14.01,2013-04-18 23:26:00,
2013-04-18 19:28:00,73.0,51.6,30.21,North,356,4.5,7.4,47,-99.99,,CLR,-99.99,VWS V14.01,2013-04-18 23:28:00,
2013-04-18 19:30:00,72.9,51.5,30.21,North,356,4.0,6.7,47,-99.99,,CLR,-99.99,VWS V14.01,2013-04-18 23:30:00,
2013-04-18 19:32:00,72.7,51.9,30.21,North,356,5.4,8.7,48,-99.99,,CLR,-99.99,VWS V14.01,2013-04-18 23:32:00,
2013-04-18 19:33:00,72.7,51.9,30.21,North,356,4.5,6.9,48,-99.99,,CLR,-99.99,VWS V14.01,2013-04-18 23:33:00,
2013-04-18 19:34:00,72.7,51.9,30.21,North,356,5.8,5.8,48,-99.99,,CLR,-99.99,VWS V14.01,2013-04-18 23:34:00,
2013-04-18 19:36:00,72.5,51.7,30.21,North,0,5.4,7.4,48,-99.99,,CLR,-99.99,VWS V14.01,2013-04-18 23:36:00,
2013-04-18 19:37:00,72.5,51.7,30.21,North,356,4.9,7.4,48,-99.99,,CLR,-99.99,VWS V14.01,2013-04-18 23:37:00,
2013-04-18 19:39:00,72.5,52.3,30.21,North,356,7.8,8.7,49,-99.99,,CLR,-99.99,VWS V14.01,2013-04-18 23:39:00,
2013-04-18 19:41:00,72.3,52.7,30.21,North,356,4.0,6.7,50,-99.99,,CLR,-99.99,VWS V14.01,2013-04-18 23:41:00,
2013-04-18 19:43:00,72.1,52.5,30.21,North,356,0.0,3.6,50,-99.99,,CLR,-99.99,VWS V14.01,2013-04-18 23:43:00,
2013-04-18 19:44:00,72.1,51.9,30.21,North,0,2.7,3.6,49,-99.99,,CLR,-99.99,VWS V14.01,2013-04-18 23:44:00,
2013-04-18 19:46:00,72.0,52.3,30.21,North,356,0.0,3.1,50,-99.99,,CLR,-99.99,VWS V14.01,2013-04-18 23:46:00,
2013-04-18 19:48:00,71.6,52.0,30.21,North,356,3.1,3.1,50,-99.99,,CLR,-99.99,VWS V14.01,2013-04-18 23:48:00,
2013-04-18 19:49:00,71.4,52.4,30.21,North,356,3.6,5.4,51,-99.99,,CLR,-99.99,VWS V14.01,2013-04-18 23:49:00,
2013-04-18 19:50:00,71.4,52.4,30.21,North,356,3.1,5.4,51,-99.99,,CLR,-99.99,VWS V14.01,2013-04-18 23:50:00,
2013-04-18 19:52:00,71.2,52.7,30.21,North,356,2.7,6.3,52,-99.99,,CLR,-99.99,VWS V14.01,2013-04-18 23:52:00,
2013-04-18 19:55:00,71.1,54.1,30.21,North,356,4.5,4.5,55,-99.99,,CLR,-99.99,VWS V14.01,2013-04-18 23:55:00,
2013-04-18 19:56:00,71.1,54.6,30.21,North,356,5.8,5.8,56,-99.99,,CLR,-99.99,VWS V14.01,2013-04-18 23:56:00,
2013-04-18 19:57:00,71.1,54.6,30.21,North,356,4.9,6.7,56,-99.99,,CLR,-99.99,VWS V14.01,2013-04-18 23:57:00,
2013-04-18 19:58:00,70.9,54.4,30.21,North,356,3.1,4.9,56,-99.99,,CLR,-99.99,VWS V14.01,2013-04-18 23:58:00,
2013-04-18 20:00:00,70.9,55.4,30.21,North,356,3.1,4.9,58,-99.99,,CLR,-99.99,VWS V14.01,2013-04-19 00:00:00,
2013-04-18 20:01:00,70.9,55.4,30.21,North,356,5.4,5.4,58,-99.99,,CLR,-99.99,VWS V14.01,2013-04-19 00:01:00,
2013-04-18 20:02:00,70.9,55.8,30.21,North,356,4.0,7.4,59,-99.99,,CLR,-99.99,VWS V14.01,2013-04-19 00:02:00,
2013-04-18 20:03:00,70.9,55.8,30.21,North,0,5.4,5.8,59,-99.99,,CLR,-99.99,VWS V14.01,2013-04-19 00:03:00,
2013-04-18 20:04:00,70.7,55.7,30.21,North,356,4.9,6.7,59,-99.99,,CLR,-99.99,VWS V14.01,2013-04-19 00:04:00,
2013-04-18 20:05:00,70.7,55.7,30.21,North,356,3.1,4.5,59,-99.99,,CLR,-99.99,VWS V14.01,2013-04-19 00:05:00,
2013-04-18 20:06:00,70.7,56.2,30.21,North,356,4.9,4.9,60,-99.99,,CLR,-99.99,VWS V14.01,2013-04-19 00:06:00,
2013-04-18 20:07:00,70.7,56.2,30.21,North,356,3.6,4.9,60,-99.99,,CLR,-99.99,VWS V14.01,2013-04-19 00:07:00,
2013-04-18 20:08:00,70.7,56.2,30.21,North,0,4.0,4.0,60,-99.99,,CLR,-99.99,VWS V14.01,2013-04-19 00:08:00,
2013-04-18 20:10:00,70.7,56.2,30.21,North,356,3.6,4.9,60,-99.99,,CLR,-99.99,VWS V14.01,2013-04-19 00:10:00,
2013-04-18 20:12:00,70.5,56.4,30.21,North,356,2.7,4.5,61,-99.99,,CLR,-99.99,VWS V14.01,2013-04-19 00:12:00,
2013-04-18 20:13:00,70.5,56.4,30.21,North,356,4.0,4.5,61,-99.99,,CLR,-99.99,VWS V14.01,2013-04-19 00:13:00,
2013-04-18 20:17:00,70.2,56.1,30.21,North,356,3.1,4.9,61,-99.99,,CLR,-99.99,VWS V14.01,2013-04-19 00:17:00,
2013-04-18 20:18:00,70.2,56.1,30.21,North,356,4.0,5.4,61,-99.99,,CLR,-99.99,VWS V14.01,2013-04-19 00:18:00,
2013-04-18 20:19:00,70.2,56.1,30.21,North,356,4.9,6.3,61,-99.99,,CLR,-99.99,VWS V14.01,2013-04-19 00:19:00,
2013-04-18 20:23:00,70.0,56.4,30.21,North,356,5.8,5.8,62,-99.99,,CLR,-99.99,VWS V14.01,2013-04-19 00:23:00,
2013-04-18 20:24:00,70.0,56.8,30.21,North,356,3.1,5.8,63,-99.99,,CLR,-99.99,VWS V14.01,2013-04-19 00:24:00,
2013-04-18 20:25:00,70.0,56.8,30.21,North,356,3.6,4.5,63,-99.99,,CLR,-99.99,VWS V14.01,2013-04-19 00:25:00,
2013-04-18 20:28:00,70.0,56.8,30.21,NNE,16,6.3,6.3,63,-99.99,,CLR,-99.99,VWS V14.01,2013-04-19 00:28:00,
2013-04-18 20:29:00,70.0,56.8,30.21,NNE,18,3.1,4.0,63,-99.99,,CLR,-99.99,VWS V14.01,2013-04-19 00:29:00,
2013-04-18 20:30:00,70.0,56.8,30.21,North,9,5.4,5.4,63,-99.99,,CLR,-99.99,VWS V14.01,2013-04-19 00:30:00,
2013-04-18 20:31:00,69.8,57.1,30.21,North,356,4.9,6.7,64,-99.99,,CLR,-99.99,VWS V14.01,2013-04-19 00:31:00,
2013-04-18 20:33:00,69.8,57.1,30.21,North,11,3.6,5.8,64,-99.99,,CLR,-99.99,VWS V14.01,2013-04-19 00:33:00,
2013-04-18 20:35:00,69.8,57.1,30.21,NNE,12,2.7,4.5,64,-99.99,,CLR,-99.99,VWS V14.01,2013-04-19 00:35:00,
2013-04-18 20:36:00,69.6,56.9,30.21,NNE,18,2.7,3.1,64,-99.99,,CLR,-99.99,VWS V14.01,2013-04-19 00:36:00,
2013-04-18 20:37:00,69.6,56.9,30.21,North,356,3.1,3.6,64,-99.99,,CLR,-99.99,VWS V14.01,2013-04-19 00:37:00,
2013-04-18 20:41:00,69.4,57.2,30.21,North,6,5.4,7.8,65,-99.99,,CLR,-99.99,VWS V14.01,2013-04-19 00:41:00,
2013-04-18 20:42:00,69.4,57.2,30.21,North,356,4.9,4.9,65,-99.99,,CLR,-99.99,VWS V14.01,2013-04-19 00:42:00,
2013-04-18 20:44:00,69.4,57.2,30.21,North,6,3.6,3.6,65,-99.99,,CLR,-99.99,VWS V14.01,2013-04-19 00:44:00,
2013-04-18 20:46:00,69.4,57.6,30.21,North,356,0.0,0.0,66,-99.99,,CLR,-99.99,VWS V14.01,2013-04-19 00:46:00,
2013-04-18 20:47:00,69.3,57.4,30.21,North,11,0.0,0.0,66,-99.99,,CLR,-99.99,VWS V14.01,2013-04-19 00:47:00,
2013-04-18 20:48:00,69.3,57.4,30.21,North,356,0.0,0.0,66,-99.99,,CLR,-99.99,VWS V14.01,2013-04-19 00:48:00,
2013-04-18 20:51:00,69.3,57.4,30.21,North,356,0.0,0.0,66,-99.99,,CLR,-99.99,VWS V14.01,2013-04-19 00:51:00,
2013-04-18 20:52:00,69.3,57.4,30.21,North,8,0.0,0.0,66,-99.99,,CLR,-99.99,VWS V14.01,2013-04-19 00:52:00,
2013-04-18 20:53:00,69.3,57.4,30.21,North,6,0.0,0.0,66,-99.99,,CLR,-99.99,VWS V14.01,2013-04-19 00:53:00,
2013-04-18 20:54:00,69.1,57.3,30.21,NNE,12,0.0,0.0,66,-99.99,,CLR,-99.99,VWS V14.01,2013-04-19 00:54:00,
2013-04-18 20:56:00,69.1,57.7,30.21,North,356,0.0,0.0,67,-99.99,,CLR,-99.99,VWS V14.01,2013-04-19 00:56:00,
2013-04-18 20:57:00,68.9,57.5,30.21,North,356,0.0,0.0,67,-99.99,,CLR,-99.99,VWS V14.01,2013-04-19 00:57:00,
2013-04-18 20:58:00,68.9,57.5,30.21,NNE,13,0.0,0.0,67,-99.99,,CLR,-99.99,VWS V14.01,2013-04-19 00:58:00,
2013-04-18 20:59:00,68.9,57.5,30.21,North,4,0.0,0.0,67,-99.99,,CLR,-99.99,VWS V14.01,2013-04-19 00:59:00,
2013-04-18 21:04:00,68.5,57.6,30.21,North,356,0.0,0.0,68,-99.99,,CLR,-99.99,VWS V14.01,2013-04-19 01:04:00,
2013-04-18 21:06:00,68.5,58.0,30.21,North,356,0.0,0.0,69,-99.99,,CLR,-99.99,VWS V14.01,2013-04-19 01:06:00,
2013-04-18 21:09:00,68.4,57.8,30.21,North,356,0.0,0.0,69,-99.99,,CLR,-99.99,VWS V14.01,2013-04-19 01:09:00,
2013-04-18 21:10:00,68.4,58.2,30.21,North,3,0.0,0.0,70,-99.99,,CLR,-99.99,VWS V14.01,2013-04-19 01:10:00,
2013-04-18 21:11:00,68.4,58.2,30.21,North,1,0.0,0.0,70,-99.99,,CLR,-99.99,VWS V14.01,2013-04-19 01:11:00,
2013-04-18 21:14:00,68.2,58.0,30.21,North,11,0.0,0.0,70,-99.99,,CLR,-99.99,VWS V14.01,2013-04-19 01:14:00,
2013-04-18 21:15:00,68.2,58.0,30.21,NNE,13,0.0,0.0,70,-99.99,,CLR,-99.99,VWS V14.01,2013-04-19 01:15:00,
2013-04-18 21:17:00,68.2,58.4,30.21,North,3,0.0,0.0,71,-99.99,,CLR,-99.99,VWS V14.01,2013-04-19 01:17:00,
2013-04-18 21:20:00,68.2,58.8,30.21,North,356,0.0,0.0,72,-99.99,,CLR,-99.99,VWS V14.01,2013-04-19 01:20:00,
2013-04-18 21:21:00,68.2,58.8,30.21,North,9,0.0,0.0,72,-99.99,,CLR,-99.99,VWS V14.01,2013-04-19 01:21:00,
2013-04-18 21:22:00,68.2,58.8,30.21,North,356,0.0,0.0,72,-99.99,,CLR,-99.99,VWS V14.01,2013-04-19 01:22:00,
2013-04-18 21:23:00,68.2,58.8,30.21,North,2,0.0,0.0,72,-99.99,,CLR,-99.99,VWS V14.01,2013-04-19 01:23:00,
2013-04-18 21:26:00,68.2,59.2,30.21,North,5,0.0,0.0,73,-99.99,,CLR,-99.99,VWS V14.01,2013-04-19 01:26:00,
2013-04-18 21:27:00,68.2,59.2,30.21,North,4,0.0,0.0,73,-99.99,,CLR,-99.99,VWS V14.01,2013-04-19 01:27:00,
2013-04-18 21:28:00,68.2,59.6,30.21,North,356,0.0,0.0,74,-99.99,,CLR,-99.99,VWS V14.01,2013-04-19 01:28:00,
2013-04-18 21:31:00,68.2,59.6,30.21,North,356,0.0,0.0,74,-99.99,,CLR,-99.99,VWS V14.01,2013-04-19 01:31:00,
2013-04-18 21:33:00,68.2,60.0,30.24,North,356,0.0,0.0,75,-99.99,,CLR,-99.99,VWS V14.01,2013-04-19 01:33:00,
2013-04-18 21:35:00,68.0,59.8,30.24,North,356,0.0,0.0,75,-99.99,,CLR,-99.99,VWS V14.01,2013-04-19 01:35:00,
2013-04-18 21:36:00,68.0,59.8,30.24,North,2,0.0,0.0,75,-99.99,,CLR,-99.99,VWS V14.01,2013-04-19 01:36:00,
2013-04-18 21:38:00,68.0,59.8,30.24,North,356,0.0,0.0,75,-99.99,,CLR,-99.99,VWS V14.01,2013-04-19 01:38:00,
2013-04-18 21:39:00,68.0,59.8,30.24,NNE,12,0.0,0.0,75,-99.99,,CLR,-99.99,VWS V14.01,2013-04-19 01:39:00,
2013-04-18 21:40:00,68.0,60.2,30.24,North,356,0.0,0.0,76,-99.99,,CLR,-99.99,VWS V14.01,2013-04-19 01:40:00,
2013-04-18 21:41:00,68.0,60.2,30.24,North,356,0.0,0.0,76,-99.99,,CLR,-99.99,VWS V14.01,2013-04-19 01:41:00,
2013-04-18 21:44:00,67.8,60.0,30.24,North,356,0.0,0.0,76,-99.99,,CLR,-99.99,VWS V14.01,2013-04-19 01:44:00,
2013-04-18 21:45:00,67.8,60.3,30.24,North,7,0.0,0.0,77,-99.99,,CLR,-99.99,VWS V14.01,2013-04-19 01:45:00,
2013-04-18 21:46:00,67.8,60.3,30.24,North,356,2.7,3.6,77,-99.99,,CLR,-99.99,VWS V14.01,2013-04-19 01:46:00,
2013-04-18 21:50:00,67.8,60.7,30.24,North,8,4.9,4.9,78,-99.99,,CLR,-99.99,VWS V14.01,2013-04-19 01:50:00,
2013-04-18 21:51:00,67.8,60.7,30.24,North,10,3.1,6.3,78,-99.99,,CLR,-99.99,VWS V14.01,2013-04-19 01:51:00,
2013-04-18 21:52:00,67.8,60.7,30.24,NNE,13,0.0,3.1,78,-99.99,,CLR,-99.99,VWS V14.01,2013-04-19 01:52:00,
2013-04-18 21:55:00,67.8,60.7,30.24,North,2,3.6,6.9,78,-99.99,,CLR,-99.99,VWS V14.01,2013-04-19 01:55:00,
2013-04-18 21:56:00,67.8,61.1,30.24,NNE,12,3.1,6.9,79,-99.99,,CLR,-99.99,VWS V14.01,2013-04-19 01:56:00,
2013-04-18 21:57:00,67.8,61.1,30.24,North,356,3.6,3.6,79,-99.99,,CLR,-99.99,VWS V14.01,2013-04-19 01:57:00,
2013-04-18 21:58:00,67.8,61.1,30.24,North,10,3.6,4.5,79,-99.99,,CLR,-99.99,VWS V14.01,2013-04-19 01:58:00,
2013-04-18 22:02:00,67.8,61.1,30.24,North,5,5.8,5.8,79,-99.99,,CLR,-99.99,VWS V14.01,2013-04-19 02:02:00,
2013-04-18 22:03:00,67.8,61.1,30.24,NNE,12,4.0,4.5,79,-99.99,,CLR,-99.99,VWS V14.01,2013-04-19 02:03:00,
2013-04-18 22:04:00,67.8,61.1,30.24,North,356,6.7,6.7,79,-99.99,,CLR,-99.99,VWS V14.01,2013-04-19 02:04:00,
2013-04-18 22:07:00,67.6,60.9,30.24,North,356,0.0,0.0,79,-99.99,,CLR,-99.99,VWS V14.01,2013-04-19 02:07:00,
2013-04-18 22:09:00,67.6,60.9,30.24,North,7,0.0,0.0,79,-99.99,,CLR,-99.99,VWS V14.01,2013-04-19 02:09:00,
2013-04-18 22:11:00,67.5,61.1,30.24,NNE,12,0.0,0.0,80,-99.99,,CLR,-99.99,VWS V14.01,2013-04-19 02:11:00,
2013-04-18 22:13:00,67.5,61.1,30.24,North,4,0.0,0.0,80,-99.99,,CLR,-99.99,VWS V14.01,2013-04-19 02:13:00,
2013-04-18 22:14:00,67.5,61.1,30.24,North,7,0.0,0.0,80,-99.99,,CLR,-99.99,VWS V14.01,2013-04-19 02:14:00,
2013-04-18 22:15:00,67.3,60.9,30.24,North,356,0.0,0.0,80,-99.99,,CLR,-99.99,VWS V14.01,2013-04-19 02:15:00,
2013-04-18 22:17:00,67.3,60.9,30.24,NNE,13,0.0,0.0,80,-99.99,,CLR,-99.99,VWS V14.01,2013-04-19 02:17:00,
2013-04-18 22:19:00,67.1,60.7,30.24,NNE,13,0.0,0.0,80,-99.99,,CLR,-99.99,VWS V14.01,2013-04-19 02:19:00,
2013-04-18 22:20:00,67.1,61.1,30.24,North,3,0.0,0.0,81,-99.99,,CLR,-99.99,VWS V14.01,2013-04-19 02:20:00,
2013-04-18 22:21:00,67.1,61.1,30.24,NNE,13,0.0,0.0,81,-99.99,,CLR,-99.99,VWS V14.01,2013-04-19 02:21:00,
2013-04-18 22:23:00,66.9,60.9,30.24,NNE,13,0.0,0.0,81,-99.99,,BKN017,-99.99,VWS V14.01,2013-04-19 02:23:00,
2013-04-18 22:25:00,66.9,61.2,30.24,North,356,0.0,0.0,82,-99.99,,BKN017,-99.99,VWS V14.01,2013-04-19 02:25:00,
2013-04-18 22:26:00,66.9,61.2,30.24,NNE,13,0.0,0.0,82,-99.99,,BKN017,-99.99,VWS V14.01,2013-04-19 02:26:00,
2013-04-18 22:28:00,66.9,61.2,30.24,North,356,0.0,0.0,82,-99.99,,BKN017,-99.99,VWS V14.01,2013-04-19 02:28:00,
2013-04-18 22:29:00,66.9,61.2,30.24,North,356,0.0,0.0,82,-99.99,,BKN017,-99.99,VWS V14.01,2013-04-19 02:29:00,
2013-04-18 22:31:00,66.7,61.4,30.24,NNE,13,0.0,0.0,83,-99.99,,BKN017,-99.99,VWS V14.01,2013-04-19 02:31:00,
2013-04-18 22:34:00,66.7,61.4,30.24,North,1,0.0,0.0,83,-99.99,,BKN017,-99.99,VWS V14.01,2013-04-19 02:34:00,
2013-04-18 22:35:00,66.7,61.8,30.24,North,356,0.0,0.0,84,-99.99,,BKN017,-99.99,VWS V14.01,2013-04-19 02:35:00,
2013-04-18 22:36:00,66.7,61.8,30.24,North,356,0.0,0.0,84,-99.99,,BKN017,-99.99,VWS V14.01,2013-04-19 02:36:00,
2013-04-18 22:38:00,66.7,61.8,30.24,North,6,0.0,0.0,84,-99.99,,BKN017,-99.99,VWS V14.01,2013-04-19 02:38:00,
2013-04-18 22:40:00,66.7,62.1,30.24,North,356,0.0,0.0,85,-99.99,,BKN017,-99.99,VWS V14.01,2013-04-19 02:40:00,
2013-04-18 22:41:00,66.7,62.1,30.24,North,6,0.0,0.0,85,-99.99,,BKN017,-99.99,VWS V14.01,2013-04-19 02:41:00,
2013-04-18 22:42:00,66.7,62.1,30.24,North,1,0.0,0.0,85,-99.99,,BKN017,-99.99,VWS V14.01,2013-04-19 02:42:00,
2013-04-18 22:43:00,66.7,62.1,30.24,North,3,0.0,0.0,85,-99.99,,BKN017,-99.99,VWS V14.01,2013-04-19 02:43:00,
2013-04-18 22:45:00,66.7,62.1,30.24,North,6,0.0,0.0,85,-99.99,,BKN017,-99.99,VWS V14.01,2013-04-19 02:45:00,
2013-04-18 22:47:00,66.7,62.4,30.24,North,356,0.0,0.0,86,-99.99,,BKN017,-99.99,VWS V14.01,2013-04-19 02:47:00,
2013-04-18 22:49:00,66.6,62.2,30.24,North,10,0.0,0.0,86,-99.99,,BKN017,-99.99,VWS V14.01,2013-04-19 02:49:00,
2013-04-18 22:50:00,66.6,62.2,30.24,North,356,0.0,0.0,86,-99.99,,BKN017,-99.99,VWS V14.01,2013-04-19 02:50:00,
2013-04-18 22:52:00,66.6,62.2,30.24,North,11,0.0,0.0,86,-99.99,,BKN017,-99.99,VWS V14.01,2013-04-19 02:52:00,
2013-04-18 22:53:00,66.6,62.2,30.24,NNE,13,0.0,0.0,86,-99.99,,BKN017,-99.99,VWS V14.01,2013-04-19 02:53:00,
2013-04-18 22:55:00,66.6,62.6,30.24,North,5,0.0,0.0,87,-99.99,,BKN017,-99.99,VWS V14.01,2013-04-19 02:55:00,
2013-04-18 22:56:00,66.4,62.4,30.24,North,356,0.0,0.0,87,-99.99,,BKN017,-99.99,VWS V14.01,2013-04-19 02:56:00,
2013-04-18 22:58:00,66.4,62.4,30.24,North,5,0.0,0.0,87,-99.99,,OVC015,-99.99,VWS V14.01,2013-04-19 02:58:00,
2013-04-18 22:59:00,66.4,62.4,30.24,North,8,0.0,0.0,87,-99.99,,OVC015,-99.99,VWS V14.01,2013-04-19 02:59:00,
2013-04-18 23:01:00,66.4,62.4,30.24,North,11,0.0,0.0,87,-99.99,,OVC015,-99.99,VWS V14.01,2013-04-19 03:01:00,
2013-04-18 23:02:00,66.4,62.4,30.24,North,356,0.0,0.0,87,-99.99,,OVC015,-99.99,VWS V14.01,2013-04-19 03:02:00,
2013-04-18 23:05:00,66.6,62.2,30.24,North,356,0.0,0.0,86,-99.99,,OVC015,-99.99,VWS V14.01,2013-04-19 03:05:00,
2013-04-18 23:06:00,66.6,62.2,30.24,North,1,0.0,0.0,86,-99.99,,OVC015,-99.99,VWS V14.01,2013-04-19 03:06:00,
2013-04-18 23:09:00,66.6,62.2,30.24,North,1,0.0,0.0,86,-99.99,,OVC015,-99.99,VWS V14.01,2013-04-19 03:09:00,
2013-04-18 23:11:00,66.6,62.2,30.24,North,356,0.0,0.0,86,-99.99,,OVC015,-99.99,VWS V14.01,2013-04-19 03:11:00,
2013-04-18 23:12:00,66.6,62.2,30.24,North,356,0.0,0.0,86,-99.99,,OVC015,-99.99,VWS V14.01,2013-04-19 03:12:00,
2013-04-18 23:14:00,66.7,62.4,30.24,North,2,0.0,0.0,86,-99.99,,OVC015,-99.99,VWS V14.01,2013-04-19 03:14:00,
2013-04-18 23:16:00,66.7,62.1,30.24,North,356,0.0,0.0,85,-99.99,,OVC015,-99.99,VWS V14.01,2013-04-19 03:16:00,
2013-04-18 23:19:00,66.7,62.1,30.24,North,9,0.0,0.0,85,-99.99,,OVC015,-99.99,VWS V14.01,2013-04-19 03:19:00,
2013-04-18 23:22:00,66.7,62.1,30.24,NNE,12,0.0,0.0,85,-99.99,,OVC015,-99.99,VWS V14.01,2013-04-19 03:22:00,
2013-04-18 23:23:00,66.7,62.1,30.24,North,6,0.0,0.0,85,-99.99,,OVC015,-99.99,VWS V14.01,2013-04-19 03:23:00,
2013-04-18 23:24:00,66.7,62.1,30.24,North,356,0.0,0.0,85,-99.99,,OVC015,-99.99,VWS V14.01,2013-04-19 03:24:00,
2013-04-18 23:25:00,66.7,62.1,30.24,North,11,0.0,0.0,85,-99.99,,OVC015,-99.99,VWS V14.01,2013-04-19 03:25:00,
2013-04-18 23:28:00,66.7,62.1,30.24,North,4,0.0,0.0,85,-99.99,,SCT017,-99.99,VWS V14.01,2013-04-19 03:28:00,
2013-04-18 23:30:00,66.7,61.8,30.24,North,356,0.0,0.0,84,-99.99,,SCT017,-99.99,VWS V14.01,2013-04-19 03:30:00,
2013-04-18 23:31:00,66.7,61.8,30.24,North,5,0.0,0.0,84,-99.99,,SCT017,-99.99,VWS V14.01,2013-04-19 03:31:00,
2013-04-18 23:33:00,66.7,62.1,30.24,North,356,0.0,0.0,85,-99.99,,SCT017,-99.99,VWS V14.01,2013-04-19 03:33:00,
2013-04-18 23:35:00,66.7,62.1,30.24,North,3,0.0,0.0,85,-99.99,,SCT017,-99.99,VWS V14.01,2013-04-19 03:35:00,
2013-04-18 23:36:00,66.6,61.9,30.24,North,3,0.0,0.0,85,-99.99,,SCT017,-99.99,VWS V14.01,2013-04-19 03:36:00,
2013-04-18 23:39:00,66.6,61.9,30.24,North,356,0.0,0.0,85,-99.99,,SCT017,-99.99,VWS V14.01,2013-04-19 03:39:00,
2013-04-18 23:40:00,66.6,61.9,30.24,North,3,0.0,0.0,85,-99.99,,SCT017,-99.99,VWS V14.01,2013-04-19 03:40:00,
2013-04-18 23:41:00,66.6,61.9,30.24,NNE,12,0.0,0.0,85,-99.99,,SCT017,-99.99,VWS V14.01,2013-04-19 03:41:00,
2013-04-18 23:42:00,66.6,61.9,30.24,North,8,0.0,0.0,85,-99.99,,SCT017,-99.99,VWS V14.01,2013-04-19 03:42:00,
2013-04-18 23:44:00,66.6,61.9,30.24,North,11,0.0,0.0,85,-99.99,,SCT017,-99.99,VWS V14.01,2013-04-19 03:44:00,
2013-04-18 23:46:00,66.6,61.9,30.24,North,1,0.0,0.0,85,-99.99,,SCT017,-99.99,VWS V14.01,2013-04-19 03:46:00,
2013-04-18 23:47:00,66.6,61.9,30.24,North,5,0.0,0.0,85,-99.99,,SCT017,-99.99,VWS V14.01,2013-04-19 03:47:00,
2013-04-18 23:48:00,66.6,61.9,30.21,North,8,0.0,0.0,85,-99.99,,SCT017,-99.99,VWS V14.01,2013-04-19 03:48:00,
2013-04-18 23:49:00,66.6,62.2,30.21,North,356,0.0,0.0,86,-99.99,,SCT017,-99.99,VWS V14.01,2013-04-19 03:49:00,
2013-04-18 23:51:00,66.6,62.2,30.21,North,356,0.0,0.0,86,-99.99,,SCT017,-99.99,VWS V14.01,2013-04-19 03:51:00,
2013-04-18 23:53:00,66.6,62.2,30.21,North,10,0.0,0.0,86,-99.99,,SCT017,-99.99,VWS V14.01,2013-04-19 03:53:00,
2013-04-18 23:55:00,66.6,62.2,30.21,North,1,0.0,0.0,86,-99.99,,SCT017,-99.99,VWS V14.01,2013-04-19 03:55:00,
2013-04-18 23:56:00,66.6,62.2,30.21,NNE,12,0.0,0.0,86,-99.99,,SCT017,-99.99,VWS V14.01,2013-04-19 03:56:00,
2013-04-18 23:59:00,66.6,62.2,30.21,North,0,0.0,0.0,86,-99.99,,SCT018,-99.99,VWS V14.01,2013-04-19 03:59:00,